<?xml version="1.0" encoding="UTF-8" standalone="no" ?>
<gpx xmlns="http://www.topografix.com/GPX/1/1" xmlns:xsi="http://www.w3.org/2001/XMLSchema-instance" xsi:schemaLocation="http://www.topografix.com/GPX/1/1 http://www.topografix.com/GPX/1/1/gpx.xsd" version="1.1" creator="VisuGPX - https://www.visugpx.com">
  <metadata>
    <name>Randonnée la SHLUCHT</name>
    <desc><![CDATA[La Schlucht- les Trois Fours- Col du Falimont-source de la Meurthe.]]></desc>
  </metadata>
  <trk>
    <name><![CDATA[2018-02-06 17:12:46]]></name>
    <trkseg>
      <trkpt lat="48.06335" lon="7.02231">
        <ele>1142.91</ele>
        <time>2018-02-06T12:33:58Z</time>
      </trkpt>
      <trkpt lat="48.06335" lon="7.02231">
        <ele>1142.91</ele>
        <time>2018-02-06T12:33:59Z</time>
      </trkpt>
      <trkpt lat="48.06336" lon="7.02232">
        <ele>1140.88</ele>
        <time>2018-02-06T12:34:28Z</time>
      </trkpt>
      <trkpt lat="48.06335" lon="7.02233">
        <ele>1133.36</ele>
        <time>2018-02-06T12:34:35Z</time>
      </trkpt>
      <trkpt lat="48.06334" lon="7.02234">
        <ele>1140.2</ele>
        <time>2018-02-06T12:34:36Z</time>
      </trkpt>
      <trkpt lat="48.06334" lon="7.02234">
        <ele>1150.08</ele>
        <time>2018-02-06T12:34:37Z</time>
      </trkpt>
      <trkpt lat="48.06334" lon="7.02234">
        <ele>1142.03</ele>
        <time>2018-02-06T12:34:38Z</time>
      </trkpt>
      <trkpt lat="48.06333" lon="7.02239">
        <ele>1142.19</ele>
        <time>2018-02-06T12:34:43Z</time>
      </trkpt>
      <trkpt lat="48.06328" lon="7.02246">
        <ele>1142.69</ele>
        <time>2018-02-06T12:34:59Z</time>
      </trkpt>
      <trkpt lat="48.06326" lon="7.02264">
        <ele>1146.1</ele>
        <time>2018-02-06T12:35:16Z</time>
      </trkpt>
      <trkpt lat="48.06329" lon="7.02281">
        <ele>1146.83</ele>
        <time>2018-02-06T12:35:30Z</time>
      </trkpt>
      <trkpt lat="48.06324" lon="7.02296">
        <ele>1148.92</ele>
        <time>2018-02-06T12:35:49Z</time>
      </trkpt>
      <trkpt lat="48.0632" lon="7.02278">
        <ele>1149.28</ele>
        <time>2018-02-06T12:36:11Z</time>
      </trkpt>
      <trkpt lat="48.06312" lon="7.02268">
        <ele>1151.42</ele>
        <time>2018-02-06T12:36:32Z</time>
      </trkpt>
      <trkpt lat="48.06292" lon="7.02273">
        <ele>1153.08</ele>
        <time>2018-02-06T12:36:59Z</time>
      </trkpt>
      <trkpt lat="48.06284" lon="7.02294">
        <ele>1156.15</ele>
        <time>2018-02-06T12:37:20Z</time>
      </trkpt>
      <trkpt lat="48.06279" lon="7.02298">
        <ele>1157.25</ele>
        <time>2018-02-06T12:37:27Z</time>
      </trkpt>
      <trkpt lat="48.06262" lon="7.02303">
        <ele>1157.81</ele>
        <time>2018-02-06T12:37:51Z</time>
      </trkpt>
      <trkpt lat="48.06251" lon="7.02303">
        <ele>1158.82</ele>
        <time>2018-02-06T12:38:16Z</time>
      </trkpt>
      <trkpt lat="48.06242" lon="7.02297">
        <ele>1160.98</ele>
        <time>2018-02-06T12:38:35Z</time>
      </trkpt>
      <trkpt lat="48.06239" lon="7.02297">
        <ele>1161.34</ele>
        <time>2018-02-06T12:38:43Z</time>
      </trkpt>
      <trkpt lat="48.06234" lon="7.02296">
        <ele>1162.73</ele>
        <time>2018-02-06T12:39:07Z</time>
      </trkpt>
      <trkpt lat="48.06234" lon="7.02297">
        <ele>1158.7</ele>
        <time>2018-02-06T12:39:11Z</time>
      </trkpt>
      <trkpt lat="48.06234" lon="7.02297">
        <ele>1164.35</ele>
        <time>2018-02-06T12:39:12Z</time>
      </trkpt>
      <trkpt lat="48.06231" lon="7.02298">
        <ele>1163.51</ele>
        <time>2018-02-06T12:39:16Z</time>
      </trkpt>
      <trkpt lat="48.06219" lon="7.02295">
        <ele>1164.12</ele>
        <time>2018-02-06T12:39:35Z</time>
      </trkpt>
      <trkpt lat="48.06214" lon="7.02304">
        <ele>1164.25</ele>
        <time>2018-02-06T12:40:03Z</time>
      </trkpt>
      <trkpt lat="48.06213" lon="7.0231">
        <ele>1164.6</ele>
        <time>2018-02-06T12:40:29Z</time>
      </trkpt>
      <trkpt lat="48.06202" lon="7.02307">
        <ele>1165.29</ele>
        <time>2018-02-06T12:40:53Z</time>
      </trkpt>
      <trkpt lat="48.0619" lon="7.02311">
        <ele>1168.15</ele>
        <time>2018-02-06T12:41:14Z</time>
      </trkpt>
      <trkpt lat="48.06179" lon="7.02307">
        <ele>1170.47</ele>
        <time>2018-02-06T12:41:33Z</time>
      </trkpt>
      <trkpt lat="48.06178" lon="7.02308">
        <ele>1170.54</ele>
        <time>2018-02-06T12:41:37Z</time>
      </trkpt>
      <trkpt lat="48.06167" lon="7.02303">
        <ele>1171.97</ele>
        <time>2018-02-06T12:41:55Z</time>
      </trkpt>
      <trkpt lat="48.06152" lon="7.02296">
        <ele>1173.68</ele>
        <time>2018-02-06T12:42:16Z</time>
      </trkpt>
      <trkpt lat="48.06139" lon="7.02291">
        <ele>1176.15</ele>
        <time>2018-02-06T12:42:39Z</time>
      </trkpt>
      <trkpt lat="48.06129" lon="7.02287">
        <ele>1177.15</ele>
        <time>2018-02-06T12:43:02Z</time>
      </trkpt>
      <trkpt lat="48.06121" lon="7.02289">
        <ele>1178.29</ele>
        <time>2018-02-06T12:43:17Z</time>
      </trkpt>
      <trkpt lat="48.06117" lon="7.02306">
        <ele>1181.09</ele>
        <time>2018-02-06T12:43:30Z</time>
      </trkpt>
      <trkpt lat="48.06111" lon="7.02311">
        <ele>1182.26</ele>
        <time>2018-02-06T12:43:41Z</time>
      </trkpt>
      <trkpt lat="48.06099" lon="7.02322">
        <ele>1184.17</ele>
        <time>2018-02-06T12:44:05Z</time>
      </trkpt>
      <trkpt lat="48.06092" lon="7.02327">
        <ele>1185.06</ele>
        <time>2018-02-06T12:44:31Z</time>
      </trkpt>
      <trkpt lat="48.06086" lon="7.02346">
        <ele>1187.14</ele>
        <time>2018-02-06T12:44:53Z</time>
      </trkpt>
      <trkpt lat="48.06082" lon="7.02368">
        <ele>1190.36</ele>
        <time>2018-02-06T12:45:08Z</time>
      </trkpt>
      <trkpt lat="48.0607" lon="7.02384">
        <ele>1190.34</ele>
        <time>2018-02-06T12:45:29Z</time>
      </trkpt>
      <trkpt lat="48.06056" lon="7.02398">
        <ele>1191.71</ele>
        <time>2018-02-06T12:45:52Z</time>
      </trkpt>
      <trkpt lat="48.06043" lon="7.02391">
        <ele>1193.91</ele>
        <time>2018-02-06T12:46:11Z</time>
      </trkpt>
      <trkpt lat="48.06034" lon="7.02385">
        <ele>1195.93</ele>
        <time>2018-02-06T12:46:32Z</time>
      </trkpt>
      <trkpt lat="48.06015" lon="7.02376">
        <ele>1198.13</ele>
        <time>2018-02-06T12:46:55Z</time>
      </trkpt>
      <trkpt lat="48.05999" lon="7.02371">
        <ele>1199.3</ele>
        <time>2018-02-06T12:47:19Z</time>
      </trkpt>
      <trkpt lat="48.06" lon="7.02375">
        <ele>1199.35</ele>
        <time>2018-02-06T12:47:44Z</time>
      </trkpt>
      <trkpt lat="48.05991" lon="7.02375">
        <ele>1201.46</ele>
        <time>2018-02-06T12:48:08Z</time>
      </trkpt>
      <trkpt lat="48.05974" lon="7.02364">
        <ele>1202.48</ele>
        <time>2018-02-06T12:48:27Z</time>
      </trkpt>
      <trkpt lat="48.05973" lon="7.02363">
        <ele>1203.34</ele>
        <time>2018-02-06T12:48:29Z</time>
      </trkpt>
      <trkpt lat="48.05961" lon="7.02356">
        <ele>1204.48</ele>
        <time>2018-02-06T12:48:48Z</time>
      </trkpt>
      <trkpt lat="48.05951" lon="7.0235">
        <ele>1204.57</ele>
        <time>2018-02-06T12:49:00Z</time>
      </trkpt>
      <trkpt lat="48.05928" lon="7.02342">
        <ele>1206.05</ele>
        <time>2018-02-06T12:49:22Z</time>
      </trkpt>
      <trkpt lat="48.05918" lon="7.02344">
        <ele>1204.88</ele>
        <time>2018-02-06T12:49:39Z</time>
      </trkpt>
      <trkpt lat="48.05919" lon="7.02336">
        <ele>1205.77</ele>
        <time>2018-02-06T12:50:03Z</time>
      </trkpt>
      <trkpt lat="48.05905" lon="7.02327">
        <ele>1206.22</ele>
        <time>2018-02-06T12:50:25Z</time>
      </trkpt>
      <trkpt lat="48.05893" lon="7.02317">
        <ele>1205.49</ele>
        <time>2018-02-06T12:50:44Z</time>
      </trkpt>
      <trkpt lat="48.05878" lon="7.02306">
        <ele>1206.35</ele>
        <time>2018-02-06T12:51:01Z</time>
      </trkpt>
      <trkpt lat="48.05856" lon="7.02297">
        <ele>1208.86</ele>
        <time>2018-02-06T12:51:25Z</time>
      </trkpt>
      <trkpt lat="48.0584" lon="7.02287">
        <ele>1211.8</ele>
        <time>2018-02-06T12:51:49Z</time>
      </trkpt>
      <trkpt lat="48.05822" lon="7.02287">
        <ele>1212.71</ele>
        <time>2018-02-06T12:52:14Z</time>
      </trkpt>
      <trkpt lat="48.0581" lon="7.0229">
        <ele>1213.31</ele>
        <time>2018-02-06T12:52:34Z</time>
      </trkpt>
      <trkpt lat="48.05794" lon="7.02297">
        <ele>1216.9</ele>
        <time>2018-02-06T12:52:53Z</time>
      </trkpt>
      <trkpt lat="48.05776" lon="7.02308">
        <ele>1219.11</ele>
        <time>2018-02-06T12:53:15Z</time>
      </trkpt>
      <trkpt lat="48.05765" lon="7.02334">
        <ele>1220.06</ele>
        <time>2018-02-06T12:53:37Z</time>
      </trkpt>
      <trkpt lat="48.05755" lon="7.02348">
        <ele>1223.29</ele>
        <time>2018-02-06T12:53:54Z</time>
      </trkpt>
      <trkpt lat="48.05737" lon="7.02374">
        <ele>1224.59</ele>
        <time>2018-02-06T12:54:18Z</time>
      </trkpt>
      <trkpt lat="48.05728" lon="7.0238">
        <ele>1227.74</ele>
        <time>2018-02-06T12:54:31Z</time>
      </trkpt>
      <trkpt lat="48.05718" lon="7.02385">
        <ele>1229.31</ele>
        <time>2018-02-06T12:54:52Z</time>
      </trkpt>
      <trkpt lat="48.05706" lon="7.02387">
        <ele>1231.97</ele>
        <time>2018-02-06T12:55:14Z</time>
      </trkpt>
      <trkpt lat="48.05699" lon="7.02381">
        <ele>1232.96</ele>
        <time>2018-02-06T12:55:33Z</time>
      </trkpt>
      <trkpt lat="48.05692" lon="7.02379">
        <ele>1233.68</ele>
        <time>2018-02-06T12:55:55Z</time>
      </trkpt>
      <trkpt lat="48.05693" lon="7.02384">
        <ele>1233.94</ele>
        <time>2018-02-06T12:56:25Z</time>
      </trkpt>
      <trkpt lat="48.05691" lon="7.02382">
        <ele>1233.78</ele>
        <time>2018-02-06T12:56:51Z</time>
      </trkpt>
      <trkpt lat="48.05693" lon="7.02387">
        <ele>1233.68</ele>
        <time>2018-02-06T12:57:24Z</time>
      </trkpt>
      <trkpt lat="48.05694" lon="7.02389">
        <ele>1233.17</ele>
        <time>2018-02-06T12:57:55Z</time>
      </trkpt>
      <trkpt lat="48.05692" lon="7.02389">
        <ele>1233.85</ele>
        <time>2018-02-06T12:58:23Z</time>
      </trkpt>
      <trkpt lat="48.05686" lon="7.02386">
        <ele>1235.21</ele>
        <time>2018-02-06T12:58:43Z</time>
      </trkpt>
      <trkpt lat="48.05672" lon="7.02387">
        <ele>1235.86</ele>
        <time>2018-02-06T12:59:06Z</time>
      </trkpt>
      <trkpt lat="48.05658" lon="7.02401">
        <ele>1236.27</ele>
        <time>2018-02-06T12:59:26Z</time>
      </trkpt>
      <trkpt lat="48.05646" lon="7.02414">
        <ele>1237.48</ele>
        <time>2018-02-06T12:59:47Z</time>
      </trkpt>
      <trkpt lat="48.05637" lon="7.02429">
        <ele>1239.6</ele>
        <time>2018-02-06T13:00:07Z</time>
      </trkpt>
      <trkpt lat="48.05623" lon="7.02442">
        <ele>1240.65</ele>
        <time>2018-02-06T13:00:28Z</time>
      </trkpt>
      <trkpt lat="48.05615" lon="7.02467">
        <ele>1239.81</ele>
        <time>2018-02-06T13:00:47Z</time>
      </trkpt>
      <trkpt lat="48.05607" lon="7.02486">
        <ele>1240.56</ele>
        <time>2018-02-06T13:01:06Z</time>
      </trkpt>
      <trkpt lat="48.05605" lon="7.025">
        <ele>1239.49</ele>
        <time>2018-02-06T13:01:25Z</time>
      </trkpt>
      <trkpt lat="48.056" lon="7.02513">
        <ele>1238.77</ele>
        <time>2018-02-06T13:01:48Z</time>
      </trkpt>
      <trkpt lat="48.05596" lon="7.02516">
        <ele>1238.08</ele>
        <time>2018-02-06T13:01:52Z</time>
      </trkpt>
      <trkpt lat="48.05587" lon="7.02531">
        <ele>1237.67</ele>
        <time>2018-02-06T13:02:13Z</time>
      </trkpt>
      <trkpt lat="48.05576" lon="7.02534">
        <ele>1237.38</ele>
        <time>2018-02-06T13:02:32Z</time>
      </trkpt>
      <trkpt lat="48.05563" lon="7.0254">
        <ele>1236.05</ele>
        <time>2018-02-06T13:02:52Z</time>
      </trkpt>
      <trkpt lat="48.05556" lon="7.02541">
        <ele>1236.87</ele>
        <time>2018-02-06T13:03:03Z</time>
      </trkpt>
      <trkpt lat="48.05552" lon="7.02543">
        <ele>1236.11</ele>
        <time>2018-02-06T13:03:07Z</time>
      </trkpt>
      <trkpt lat="48.05544" lon="7.02549">
        <ele>1236.02</ele>
        <time>2018-02-06T13:03:22Z</time>
      </trkpt>
      <trkpt lat="48.05542" lon="7.02554">
        <ele>1235.42</ele>
        <time>2018-02-06T13:03:58Z</time>
      </trkpt>
      <trkpt lat="48.05542" lon="7.02541">
        <ele>1236.58</ele>
        <time>2018-02-06T13:04:12Z</time>
      </trkpt>
      <trkpt lat="48.05539" lon="7.02529">
        <ele>1238.23</ele>
        <time>2018-02-06T13:04:22Z</time>
      </trkpt>
      <trkpt lat="48.05537" lon="7.02529">
        <ele>1237.78</ele>
        <time>2018-02-06T13:04:52Z</time>
      </trkpt>
      <trkpt lat="48.05538" lon="7.02531">
        <ele>1237.78</ele>
        <time>2018-02-06T13:05:14Z</time>
      </trkpt>
      <trkpt lat="48.05537" lon="7.02535">
        <ele>1237.69</ele>
        <time>2018-02-06T13:05:44Z</time>
      </trkpt>
      <trkpt lat="48.05537" lon="7.02534">
        <ele>1237.68</ele>
        <time>2018-02-06T13:06:13Z</time>
      </trkpt>
      <trkpt lat="48.05538" lon="7.02538">
        <ele>1236.3</ele>
        <time>2018-02-06T13:06:34Z</time>
      </trkpt>
      <trkpt lat="48.05538" lon="7.02542">
        <ele>1236.39</ele>
        <time>2018-02-06T13:06:58Z</time>
      </trkpt>
      <trkpt lat="48.05542" lon="7.02519">
        <ele>1238.93</ele>
        <time>2018-02-06T13:07:19Z</time>
      </trkpt>
      <trkpt lat="48.05544" lon="7.02496">
        <ele>1239.81</ele>
        <time>2018-02-06T13:07:39Z</time>
      </trkpt>
      <trkpt lat="48.0554" lon="7.0248">
        <ele>1240.33</ele>
        <time>2018-02-06T13:08:03Z</time>
      </trkpt>
      <trkpt lat="48.05531" lon="7.02476">
        <ele>1240.09</ele>
        <time>2018-02-06T13:08:30Z</time>
      </trkpt>
      <trkpt lat="48.0552" lon="7.02478">
        <ele>1240.53</ele>
        <time>2018-02-06T13:08:45Z</time>
      </trkpt>
      <trkpt lat="48.05509" lon="7.02477">
        <ele>1239.87</ele>
        <time>2018-02-06T13:09:01Z</time>
      </trkpt>
      <trkpt lat="48.05504" lon="7.02477">
        <ele>1238.24</ele>
        <time>2018-02-06T13:09:21Z</time>
      </trkpt>
      <trkpt lat="48.05494" lon="7.02478">
        <ele>1237.89</ele>
        <time>2018-02-06T13:09:30Z</time>
      </trkpt>
      <trkpt lat="48.05486" lon="7.0248">
        <ele>1237.35</ele>
        <time>2018-02-06T13:09:39Z</time>
      </trkpt>
      <trkpt lat="48.05472" lon="7.02486">
        <ele>1236.35</ele>
        <time>2018-02-06T13:09:57Z</time>
      </trkpt>
      <trkpt lat="48.05463" lon="7.02491">
        <ele>1234.65</ele>
        <time>2018-02-06T13:10:09Z</time>
      </trkpt>
      <trkpt lat="48.05454" lon="7.02492">
        <ele>1234.22</ele>
        <time>2018-02-06T13:10:25Z</time>
      </trkpt>
      <trkpt lat="48.05451" lon="7.02486">
        <ele>1232.72</ele>
        <time>2018-02-06T13:10:49Z</time>
      </trkpt>
      <trkpt lat="48.0545" lon="7.02485">
        <ele>1233.13</ele>
        <time>2018-02-06T13:10:50Z</time>
      </trkpt>
      <trkpt lat="48.05445" lon="7.02481">
        <ele>1232.32</ele>
        <time>2018-02-06T13:10:55Z</time>
      </trkpt>
      <trkpt lat="48.0544" lon="7.0248">
        <ele>1231.9</ele>
        <time>2018-02-06T13:11:00Z</time>
      </trkpt>
      <trkpt lat="48.05425" lon="7.02471">
        <ele>1229.3</ele>
        <time>2018-02-06T13:11:18Z</time>
      </trkpt>
      <trkpt lat="48.05414" lon="7.02463">
        <ele>1228.39</ele>
        <time>2018-02-06T13:11:39Z</time>
      </trkpt>
      <trkpt lat="48.05414" lon="7.02461">
        <ele>1228.38</ele>
        <time>2018-02-06T13:12:02Z</time>
      </trkpt>
      <trkpt lat="48.0541" lon="7.02456">
        <ele>1227.43</ele>
        <time>2018-02-06T13:12:25Z</time>
      </trkpt>
      <trkpt lat="48.05398" lon="7.02442">
        <ele>1225.84</ele>
        <time>2018-02-06T13:12:41Z</time>
      </trkpt>
      <trkpt lat="48.05382" lon="7.02428">
        <ele>1223.61</ele>
        <time>2018-02-06T13:12:57Z</time>
      </trkpt>
      <trkpt lat="48.05373" lon="7.02418">
        <ele>1221.61</ele>
        <time>2018-02-06T13:13:08Z</time>
      </trkpt>
      <trkpt lat="48.05366" lon="7.0241">
        <ele>1220.77</ele>
        <time>2018-02-06T13:13:16Z</time>
      </trkpt>
      <trkpt lat="48.0536" lon="7.02405">
        <ele>1219.42</ele>
        <time>2018-02-06T13:13:23Z</time>
      </trkpt>
      <trkpt lat="48.05356" lon="7.02402">
        <ele>1219.53</ele>
        <time>2018-02-06T13:13:27Z</time>
      </trkpt>
      <trkpt lat="48.05344" lon="7.02389">
        <ele>1218.18</ele>
        <time>2018-02-06T13:13:41Z</time>
      </trkpt>
      <trkpt lat="48.05327" lon="7.02377">
        <ele>1216.88</ele>
        <time>2018-02-06T13:13:59Z</time>
      </trkpt>
      <trkpt lat="48.05313" lon="7.02374">
        <ele>1216.11</ele>
        <time>2018-02-06T13:14:18Z</time>
      </trkpt>
      <trkpt lat="48.05308" lon="7.02376">
        <ele>1215.23</ele>
        <time>2018-02-06T13:14:36Z</time>
      </trkpt>
      <trkpt lat="48.05308" lon="7.02375">
        <ele>1215.8</ele>
        <time>2018-02-06T13:15:03Z</time>
      </trkpt>
      <trkpt lat="48.05305" lon="7.02375">
        <ele>1215.43</ele>
        <time>2018-02-06T13:15:27Z</time>
      </trkpt>
      <trkpt lat="48.05302" lon="7.02377">
        <ele>1215.09</ele>
        <time>2018-02-06T13:15:53Z</time>
      </trkpt>
      <trkpt lat="48.05297" lon="7.02379">
        <ele>1214.09</ele>
        <time>2018-02-06T13:16:12Z</time>
      </trkpt>
      <trkpt lat="48.05284" lon="7.02379">
        <ele>1212.87</ele>
        <time>2018-02-06T13:16:30Z</time>
      </trkpt>
      <trkpt lat="48.05272" lon="7.02372">
        <ele>1211.99</ele>
        <time>2018-02-06T13:16:49Z</time>
      </trkpt>
      <trkpt lat="48.05261" lon="7.02369">
        <ele>1210.67</ele>
        <time>2018-02-06T13:17:05Z</time>
      </trkpt>
      <trkpt lat="48.05249" lon="7.02364">
        <ele>1209.37</ele>
        <time>2018-02-06T13:17:21Z</time>
      </trkpt>
      <trkpt lat="48.05247" lon="7.02362">
        <ele>1209.56</ele>
        <time>2018-02-06T13:17:36Z</time>
      </trkpt>
      <trkpt lat="48.05241" lon="7.02356">
        <ele>1208.69</ele>
        <time>2018-02-06T13:18:01Z</time>
      </trkpt>
      <trkpt lat="48.05239" lon="7.02353">
        <ele>1208.98</ele>
        <time>2018-02-06T13:18:04Z</time>
      </trkpt>
      <trkpt lat="48.05233" lon="7.02347">
        <ele>1208.77</ele>
        <time>2018-02-06T13:18:12Z</time>
      </trkpt>
      <trkpt lat="48.05227" lon="7.02343">
        <ele>1208.33</ele>
        <time>2018-02-06T13:18:18Z</time>
      </trkpt>
      <trkpt lat="48.05224" lon="7.02342">
        <ele>1208.77</ele>
        <time>2018-02-06T13:18:22Z</time>
      </trkpt>
      <trkpt lat="48.05208" lon="7.02339">
        <ele>1208.79</ele>
        <time>2018-02-06T13:18:35Z</time>
      </trkpt>
      <trkpt lat="48.05196" lon="7.02338">
        <ele>1208.32</ele>
        <time>2018-02-06T13:18:47Z</time>
      </trkpt>
      <trkpt lat="48.05179" lon="7.02339">
        <ele>1208.12</ele>
        <time>2018-02-06T13:19:01Z</time>
      </trkpt>
      <trkpt lat="48.05163" lon="7.02341">
        <ele>1209.12</ele>
        <time>2018-02-06T13:19:16Z</time>
      </trkpt>
      <trkpt lat="48.05147" lon="7.02341">
        <ele>1208.86</ele>
        <time>2018-02-06T13:19:33Z</time>
      </trkpt>
      <trkpt lat="48.05132" lon="7.02342">
        <ele>1210.99</ele>
        <time>2018-02-06T13:19:52Z</time>
      </trkpt>
      <trkpt lat="48.05114" lon="7.02343">
        <ele>1212</ele>
        <time>2018-02-06T13:20:11Z</time>
      </trkpt>
      <trkpt lat="48.051" lon="7.02346">
        <ele>1213.09</ele>
        <time>2018-02-06T13:20:28Z</time>
      </trkpt>
      <trkpt lat="48.05085" lon="7.02345">
        <ele>1214.42</ele>
        <time>2018-02-06T13:20:45Z</time>
      </trkpt>
      <trkpt lat="48.05068" lon="7.02346">
        <ele>1215.26</ele>
        <time>2018-02-06T13:21:12Z</time>
      </trkpt>
      <trkpt lat="48.05061" lon="7.02347">
        <ele>1217.3</ele>
        <time>2018-02-06T13:21:21Z</time>
      </trkpt>
      <trkpt lat="48.05045" lon="7.02351">
        <ele>1217.92</ele>
        <time>2018-02-06T13:21:42Z</time>
      </trkpt>
      <trkpt lat="48.05029" lon="7.02347">
        <ele>1219.44</ele>
        <time>2018-02-06T13:22:06Z</time>
      </trkpt>
      <trkpt lat="48.05025" lon="7.02348">
        <ele>1220.09</ele>
        <time>2018-02-06T13:22:29Z</time>
      </trkpt>
      <trkpt lat="48.05009" lon="7.02343">
        <ele>1222.59</ele>
        <time>2018-02-06T13:22:51Z</time>
      </trkpt>
      <trkpt lat="48.04999" lon="7.02346">
        <ele>1223.55</ele>
        <time>2018-02-06T13:23:00Z</time>
      </trkpt>
      <trkpt lat="48.04988" lon="7.02349">
        <ele>1223.48</ele>
        <time>2018-02-06T13:23:16Z</time>
      </trkpt>
      <trkpt lat="48.04983" lon="7.02349">
        <ele>1224.13</ele>
        <time>2018-02-06T13:23:32Z</time>
      </trkpt>
      <trkpt lat="48.0498" lon="7.02351">
        <ele>1223.44</ele>
        <time>2018-02-06T13:23:53Z</time>
      </trkpt>
      <trkpt lat="48.04978" lon="7.02354">
        <ele>1224.59</ele>
        <time>2018-02-06T13:23:57Z</time>
      </trkpt>
      <trkpt lat="48.04977" lon="7.02362">
        <ele>1224.13</ele>
        <time>2018-02-06T13:24:10Z</time>
      </trkpt>
      <trkpt lat="48.04974" lon="7.0236">
        <ele>1224.5</ele>
        <time>2018-02-06T13:24:26Z</time>
      </trkpt>
      <trkpt lat="48.04976" lon="7.02357">
        <ele>1225.29</ele>
        <time>2018-02-06T13:24:43Z</time>
      </trkpt>
      <trkpt lat="48.04981" lon="7.02348">
        <ele>1221.09</ele>
        <time>2018-02-06T13:24:45Z</time>
      </trkpt>
      <trkpt lat="48.04983" lon="7.02338">
        <ele>1240.13</ele>
        <time>2018-02-06T13:24:46Z</time>
      </trkpt>
      <trkpt lat="48.0498" lon="7.02332">
        <ele>1225.23</ele>
        <time>2018-02-06T13:24:47Z</time>
      </trkpt>
      <trkpt lat="48.04981" lon="7.02334">
        <ele>1224.57</ele>
        <time>2018-02-06T13:24:49Z</time>
      </trkpt>
      <trkpt lat="48.04981" lon="7.02341">
        <ele>1224.12</ele>
        <time>2018-02-06T13:24:52Z</time>
      </trkpt>
      <trkpt lat="48.04983" lon="7.02347">
        <ele>1224.75</ele>
        <time>2018-02-06T13:25:10Z</time>
      </trkpt>
      <trkpt lat="48.04984" lon="7.02347">
        <ele>1224.57</ele>
        <time>2018-02-06T13:25:38Z</time>
      </trkpt>
      <trkpt lat="48.04982" lon="7.02348">
        <ele>1224.87</ele>
        <time>2018-02-06T13:26:15Z</time>
      </trkpt>
      <trkpt lat="48.04984" lon="7.02348">
        <ele>1225.04</ele>
        <time>2018-02-06T13:26:45Z</time>
      </trkpt>
      <trkpt lat="48.04985" lon="7.02348">
        <ele>1225.41</ele>
        <time>2018-02-06T13:27:12Z</time>
      </trkpt>
      <trkpt lat="48.04983" lon="7.02348">
        <ele>1225.41</ele>
        <time>2018-02-06T13:27:41Z</time>
      </trkpt>
      <trkpt lat="48.04982" lon="7.02353">
        <ele>1225.29</ele>
        <time>2018-02-06T13:27:59Z</time>
      </trkpt>
      <trkpt lat="48.04983" lon="7.02351">
        <ele>1222.74</ele>
        <time>2018-02-06T13:28:18Z</time>
      </trkpt>
      <trkpt lat="48.04984" lon="7.02351">
        <ele>1222.97</ele>
        <time>2018-02-06T13:28:22Z</time>
      </trkpt>
      <trkpt lat="48.04984" lon="7.02352">
        <ele>1227.17</ele>
        <time>2018-02-06T13:28:23Z</time>
      </trkpt>
      <trkpt lat="48.04984" lon="7.02351">
        <ele>1223.5</ele>
        <time>2018-02-06T13:28:24Z</time>
      </trkpt>
      <trkpt lat="48.04985" lon="7.02352">
        <ele>1228.98</ele>
        <time>2018-02-06T13:28:27Z</time>
      </trkpt>
      <trkpt lat="48.04985" lon="7.02352">
        <ele>1225.65</ele>
        <time>2018-02-06T13:28:28Z</time>
      </trkpt>
      <trkpt lat="48.04985" lon="7.02351">
        <ele>1227.37</ele>
        <time>2018-02-06T13:28:34Z</time>
      </trkpt>
      <trkpt lat="48.04984" lon="7.02349">
        <ele>1222.09</ele>
        <time>2018-02-06T13:28:36Z</time>
      </trkpt>
      <trkpt lat="48.04983" lon="7.02349">
        <ele>1226.48</ele>
        <time>2018-02-06T13:28:37Z</time>
      </trkpt>
      <trkpt lat="48.04985" lon="7.02349">
        <ele>1231.07</ele>
        <time>2018-02-06T13:28:44Z</time>
      </trkpt>
      <trkpt lat="48.04985" lon="7.02347">
        <ele>1227.1</ele>
        <time>2018-02-06T13:28:46Z</time>
      </trkpt>
      <trkpt lat="48.04985" lon="7.02351">
        <ele>1226.26</ele>
        <time>2018-02-06T13:29:01Z</time>
      </trkpt>
      <trkpt lat="48.04985" lon="7.02353">
        <ele>1226.21</ele>
        <time>2018-02-06T13:29:27Z</time>
      </trkpt>
      <trkpt lat="48.04988" lon="7.02351">
        <ele>1226.13</ele>
        <time>2018-02-06T13:29:42Z</time>
      </trkpt>
      <trkpt lat="48.04985" lon="7.02349">
        <ele>1226.36</ele>
        <time>2018-02-06T13:29:56Z</time>
      </trkpt>
      <trkpt lat="48.04984" lon="7.0235">
        <ele>1226.85</ele>
        <time>2018-02-06T13:30:23Z</time>
      </trkpt>
      <trkpt lat="48.04982" lon="7.02353">
        <ele>1226.29</ele>
        <time>2018-02-06T13:30:49Z</time>
      </trkpt>
      <trkpt lat="48.04983" lon="7.02351">
        <ele>1226.73</ele>
        <time>2018-02-06T13:31:12Z</time>
      </trkpt>
      <trkpt lat="48.04982" lon="7.02355">
        <ele>1226.7</ele>
        <time>2018-02-06T13:31:33Z</time>
      </trkpt>
      <trkpt lat="48.0498" lon="7.02352">
        <ele>1224.83</ele>
        <time>2018-02-06T13:31:59Z</time>
      </trkpt>
      <trkpt lat="48.0498" lon="7.02352">
        <ele>1228.06</ele>
        <time>2018-02-06T13:32:00Z</time>
      </trkpt>
      <trkpt lat="48.04981" lon="7.02352">
        <ele>1227.56</ele>
        <time>2018-02-06T13:32:01Z</time>
      </trkpt>
      <trkpt lat="48.04983" lon="7.02352">
        <ele>1227.22</ele>
        <time>2018-02-06T13:32:24Z</time>
      </trkpt>
      <trkpt lat="48.04983" lon="7.02352">
        <ele>1227.78</ele>
        <time>2018-02-06T13:32:54Z</time>
      </trkpt>
      <trkpt lat="48.04981" lon="7.02354">
        <ele>1227.14</ele>
        <time>2018-02-06T13:33:08Z</time>
      </trkpt>
      <trkpt lat="48.04984" lon="7.02351">
        <ele>1226</ele>
        <time>2018-02-06T13:33:31Z</time>
      </trkpt>
      <trkpt lat="48.04985" lon="7.02351">
        <ele>1221.79</ele>
        <time>2018-02-06T13:33:32Z</time>
      </trkpt>
      <trkpt lat="48.04984" lon="7.02351">
        <ele>1232.38</ele>
        <time>2018-02-06T13:33:33Z</time>
      </trkpt>
      <trkpt lat="48.04984" lon="7.02351">
        <ele>1228.44</ele>
        <time>2018-02-06T13:33:34Z</time>
      </trkpt>
      <trkpt lat="48.04984" lon="7.02351">
        <ele>1222.64</ele>
        <time>2018-02-06T13:33:36Z</time>
      </trkpt>
      <trkpt lat="48.04984" lon="7.0235">
        <ele>1228.58</ele>
        <time>2018-02-06T13:33:37Z</time>
      </trkpt>
      <trkpt lat="48.04984" lon="7.0235">
        <ele>1235.42</ele>
        <time>2018-02-06T13:33:43Z</time>
      </trkpt>
      <trkpt lat="48.04984" lon="7.0235">
        <ele>1229.11</ele>
        <time>2018-02-06T13:33:44Z</time>
      </trkpt>
      <trkpt lat="48.04984" lon="7.0235">
        <ele>1227.95</ele>
        <time>2018-02-06T13:34:05Z</time>
      </trkpt>
      <trkpt lat="48.04983" lon="7.0234">
        <ele>1227.8</ele>
        <time>2018-02-06T13:34:28Z</time>
      </trkpt>
      <trkpt lat="48.04982" lon="7.02345">
        <ele>1227.83</ele>
        <time>2018-02-06T13:34:43Z</time>
      </trkpt>
      <trkpt lat="48.04983" lon="7.02347">
        <ele>1227.23</ele>
        <time>2018-02-06T13:35:02Z</time>
      </trkpt>
      <trkpt lat="48.04984" lon="7.02348">
        <ele>1227.99</ele>
        <time>2018-02-06T13:35:04Z</time>
      </trkpt>
      <trkpt lat="48.04986" lon="7.02357">
        <ele>1228.69</ele>
        <time>2018-02-06T13:35:20Z</time>
      </trkpt>
      <trkpt lat="48.04986" lon="7.02359">
        <ele>1228.81</ele>
        <time>2018-02-06T13:35:40Z</time>
      </trkpt>
      <trkpt lat="48.04989" lon="7.02359">
        <ele>1228.16</ele>
        <time>2018-02-06T13:36:13Z</time>
      </trkpt>
      <trkpt lat="48.04986" lon="7.02355">
        <ele>1228.73</ele>
        <time>2018-02-06T13:36:33Z</time>
      </trkpt>
      <trkpt lat="48.04987" lon="7.02353">
        <ele>1228.91</ele>
        <time>2018-02-06T13:36:51Z</time>
      </trkpt>
      <trkpt lat="48.04994" lon="7.02352">
        <ele>1227.94</ele>
        <time>2018-02-06T13:37:09Z</time>
      </trkpt>
      <trkpt lat="48.05001" lon="7.0235">
        <ele>1227.27</ele>
        <time>2018-02-06T13:37:25Z</time>
      </trkpt>
      <trkpt lat="48.0501" lon="7.02341">
        <ele>1226.42</ele>
        <time>2018-02-06T13:37:44Z</time>
      </trkpt>
      <trkpt lat="48.05017" lon="7.02334">
        <ele>1226.19</ele>
        <time>2018-02-06T13:37:56Z</time>
      </trkpt>
      <trkpt lat="48.05025" lon="7.02325">
        <ele>1226.51</ele>
        <time>2018-02-06T13:38:09Z</time>
      </trkpt>
      <trkpt lat="48.05035" lon="7.0231">
        <ele>1227.26</ele>
        <time>2018-02-06T13:38:26Z</time>
      </trkpt>
      <trkpt lat="48.0504" lon="7.02304">
        <ele>1227.21</ele>
        <time>2018-02-06T13:38:33Z</time>
      </trkpt>
      <trkpt lat="48.05053" lon="7.02286">
        <ele>1225.35</ele>
        <time>2018-02-06T13:38:51Z</time>
      </trkpt>
      <trkpt lat="48.05062" lon="7.02252">
        <ele>1226.62</ele>
        <time>2018-02-06T13:39:10Z</time>
      </trkpt>
      <trkpt lat="48.05071" lon="7.02229">
        <ele>1227.52</ele>
        <time>2018-02-06T13:39:28Z</time>
      </trkpt>
      <trkpt lat="48.0508" lon="7.0221">
        <ele>1227.73</ele>
        <time>2018-02-06T13:39:45Z</time>
      </trkpt>
      <trkpt lat="48.05081" lon="7.02206">
        <ele>1228.42</ele>
        <time>2018-02-06T13:39:49Z</time>
      </trkpt>
      <trkpt lat="48.05083" lon="7.02195">
        <ele>1229.64</ele>
        <time>2018-02-06T13:39:57Z</time>
      </trkpt>
      <trkpt lat="48.05085" lon="7.02176">
        <ele>1228.84</ele>
        <time>2018-02-06T13:40:11Z</time>
      </trkpt>
      <trkpt lat="48.05087" lon="7.02169">
        <ele>1228.87</ele>
        <time>2018-02-06T13:40:16Z</time>
      </trkpt>
      <trkpt lat="48.0509" lon="7.02152">
        <ele>1230.81</ele>
        <time>2018-02-06T13:40:33Z</time>
      </trkpt>
      <trkpt lat="48.05092" lon="7.02148">
        <ele>1231.18</ele>
        <time>2018-02-06T13:40:36Z</time>
      </trkpt>
      <trkpt lat="48.05093" lon="7.02138">
        <ele>1233.86</ele>
        <time>2018-02-06T13:40:45Z</time>
      </trkpt>
      <trkpt lat="48.05092" lon="7.02138">
        <ele>1231.11</ele>
        <time>2018-02-06T13:40:46Z</time>
      </trkpt>
      <trkpt lat="48.05092" lon="7.02136">
        <ele>1230.06</ele>
        <time>2018-02-06T13:40:48Z</time>
      </trkpt>
      <trkpt lat="48.05093" lon="7.02118">
        <ele>1228.49</ele>
        <time>2018-02-06T13:41:08Z</time>
      </trkpt>
      <trkpt lat="48.05096" lon="7.02108">
        <ele>1226.84</ele>
        <time>2018-02-06T13:41:18Z</time>
      </trkpt>
      <trkpt lat="48.05097" lon="7.02103">
        <ele>1228.2</ele>
        <time>2018-02-06T13:41:21Z</time>
      </trkpt>
      <trkpt lat="48.05104" lon="7.02072">
        <ele>1227.81</ele>
        <time>2018-02-06T13:41:41Z</time>
      </trkpt>
      <trkpt lat="48.05108" lon="7.02065">
        <ele>1228.56</ele>
        <time>2018-02-06T13:41:45Z</time>
      </trkpt>
      <trkpt lat="48.05109" lon="7.0206">
        <ele>1226.83</ele>
        <time>2018-02-06T13:41:48Z</time>
      </trkpt>
      <trkpt lat="48.0511" lon="7.02058">
        <ele>1229.92</ele>
        <time>2018-02-06T13:41:49Z</time>
      </trkpt>
      <trkpt lat="48.05111" lon="7.02056">
        <ele>1228.27</ele>
        <time>2018-02-06T13:41:50Z</time>
      </trkpt>
      <trkpt lat="48.05116" lon="7.02041">
        <ele>1231.31</ele>
        <time>2018-02-06T13:42:01Z</time>
      </trkpt>
      <trkpt lat="48.05123" lon="7.02013">
        <ele>1231.35</ele>
        <time>2018-02-06T13:42:23Z</time>
      </trkpt>
      <trkpt lat="48.05123" lon="7.01987">
        <ele>1230.24</ele>
        <time>2018-02-06T13:42:44Z</time>
      </trkpt>
      <trkpt lat="48.0512" lon="7.01969">
        <ele>1229.98</ele>
        <time>2018-02-06T13:43:07Z</time>
      </trkpt>
      <trkpt lat="48.05118" lon="7.01949">
        <ele>1226.09</ele>
        <time>2018-02-06T13:43:24Z</time>
      </trkpt>
      <trkpt lat="48.05118" lon="7.01944">
        <ele>1230.86</ele>
        <time>2018-02-06T13:43:29Z</time>
      </trkpt>
      <trkpt lat="48.05118" lon="7.01943">
        <ele>1227.69</ele>
        <time>2018-02-06T13:43:30Z</time>
      </trkpt>
      <trkpt lat="48.05121" lon="7.01938">
        <ele>1226</ele>
        <time>2018-02-06T13:44:01Z</time>
      </trkpt>
      <trkpt lat="48.05121" lon="7.01938">
        <ele>1226</ele>
        <time>2018-02-06T13:44:02Z</time>
      </trkpt>
      <trkpt lat="48.05121" lon="7.01937">
        <ele>1230.82</ele>
        <time>2018-02-06T13:44:04Z</time>
      </trkpt>
      <trkpt lat="48.0512" lon="7.01937">
        <ele>1228.15</ele>
        <time>2018-02-06T13:44:05Z</time>
      </trkpt>
      <trkpt lat="48.05117" lon="7.01931">
        <ele>1228.65</ele>
        <time>2018-02-06T13:44:33Z</time>
      </trkpt>
      <trkpt lat="48.05115" lon="7.01926">
        <ele>1226.7</ele>
        <time>2018-02-06T13:45:02Z</time>
      </trkpt>
      <trkpt lat="48.05126" lon="7.01926">
        <ele>1228.12</ele>
        <time>2018-02-06T13:45:34Z</time>
      </trkpt>
      <trkpt lat="48.05129" lon="7.01927">
        <ele>1228.45</ele>
        <time>2018-02-06T13:46:04Z</time>
      </trkpt>
      <trkpt lat="48.05124" lon="7.01922">
        <ele>1228.11</ele>
        <time>2018-02-06T13:46:34Z</time>
      </trkpt>
      <trkpt lat="48.05126" lon="7.01915">
        <ele>1228.03</ele>
        <time>2018-02-06T13:46:59Z</time>
      </trkpt>
      <trkpt lat="48.05123" lon="7.01906">
        <ele>1229.64</ele>
        <time>2018-02-06T13:47:14Z</time>
      </trkpt>
      <trkpt lat="48.05121" lon="7.01905">
        <ele>1226.12</ele>
        <time>2018-02-06T13:47:17Z</time>
      </trkpt>
      <trkpt lat="48.05121" lon="7.01904">
        <ele>1231.1</ele>
        <time>2018-02-06T13:47:18Z</time>
      </trkpt>
      <trkpt lat="48.05121" lon="7.01901">
        <ele>1227.57</ele>
        <time>2018-02-06T13:47:22Z</time>
      </trkpt>
      <trkpt lat="48.05121" lon="7.019">
        <ele>1232.05</ele>
        <time>2018-02-06T13:47:23Z</time>
      </trkpt>
      <trkpt lat="48.05122" lon="7.01899">
        <ele>1231.15</ele>
        <time>2018-02-06T13:47:24Z</time>
      </trkpt>
      <trkpt lat="48.05122" lon="7.01889">
        <ele>1230.5</ele>
        <time>2018-02-06T13:47:31Z</time>
      </trkpt>
      <trkpt lat="48.05124" lon="7.01884">
        <ele>1233.94</ele>
        <time>2018-02-06T13:47:35Z</time>
      </trkpt>
      <trkpt lat="48.05124" lon="7.01881">
        <ele>1230.77</ele>
        <time>2018-02-06T13:47:37Z</time>
      </trkpt>
      <trkpt lat="48.05126" lon="7.01876">
        <ele>1234.09</ele>
        <time>2018-02-06T13:47:41Z</time>
      </trkpt>
      <trkpt lat="48.05126" lon="7.01874">
        <ele>1229.94</ele>
        <time>2018-02-06T13:47:43Z</time>
      </trkpt>
      <trkpt lat="48.05126" lon="7.01873">
        <ele>1233.57</ele>
        <time>2018-02-06T13:47:44Z</time>
      </trkpt>
      <trkpt lat="48.05126" lon="7.01871">
        <ele>1233.52</ele>
        <time>2018-02-06T13:47:45Z</time>
      </trkpt>
      <trkpt lat="48.05131" lon="7.01843">
        <ele>1236.8</ele>
        <time>2018-02-06T13:48:08Z</time>
      </trkpt>
      <trkpt lat="48.05122" lon="7.01823">
        <ele>1238</ele>
        <time>2018-02-06T13:48:27Z</time>
      </trkpt>
      <trkpt lat="48.05102" lon="7.01811">
        <ele>1238.39</ele>
        <time>2018-02-06T13:48:50Z</time>
      </trkpt>
      <trkpt lat="48.05099" lon="7.01804">
        <ele>1239.77</ele>
        <time>2018-02-06T13:48:57Z</time>
      </trkpt>
      <trkpt lat="48.05084" lon="7.01792">
        <ele>1243.19</ele>
        <time>2018-02-06T13:49:17Z</time>
      </trkpt>
      <trkpt lat="48.05081" lon="7.01791">
        <ele>1239.81</ele>
        <time>2018-02-06T13:49:19Z</time>
      </trkpt>
      <trkpt lat="48.05081" lon="7.0179">
        <ele>1243.42</ele>
        <time>2018-02-06T13:49:20Z</time>
      </trkpt>
      <trkpt lat="48.0507" lon="7.01778">
        <ele>1242.43</ele>
        <time>2018-02-06T13:49:44Z</time>
      </trkpt>
      <trkpt lat="48.0507" lon="7.01778">
        <ele>1246.19</ele>
        <time>2018-02-06T13:49:45Z</time>
      </trkpt>
      <trkpt lat="48.05052" lon="7.01766">
        <ele>1244.87</ele>
        <time>2018-02-06T13:50:08Z</time>
      </trkpt>
      <trkpt lat="48.05035" lon="7.01755">
        <ele>1245.94</ele>
        <time>2018-02-06T13:50:28Z</time>
      </trkpt>
      <trkpt lat="48.05028" lon="7.01748">
        <ele>1247.58</ele>
        <time>2018-02-06T13:50:41Z</time>
      </trkpt>
      <trkpt lat="48.05005" lon="7.0174">
        <ele>1248.54</ele>
        <time>2018-02-06T13:51:04Z</time>
      </trkpt>
      <trkpt lat="48.04984" lon="7.01731">
        <ele>1249.23</ele>
        <time>2018-02-06T13:51:26Z</time>
      </trkpt>
      <trkpt lat="48.04967" lon="7.01711">
        <ele>1248.54</ele>
        <time>2018-02-06T13:51:52Z</time>
      </trkpt>
      <trkpt lat="48.04951" lon="7.01697">
        <ele>1245.31</ele>
        <time>2018-02-06T13:52:10Z</time>
      </trkpt>
      <trkpt lat="48.04943" lon="7.01687">
        <ele>1249.4</ele>
        <time>2018-02-06T13:52:20Z</time>
      </trkpt>
      <trkpt lat="48.04943" lon="7.01686">
        <ele>1245.89</ele>
        <time>2018-02-06T13:52:21Z</time>
      </trkpt>
      <trkpt lat="48.04929" lon="7.01673">
        <ele>1246.37</ele>
        <time>2018-02-06T13:52:42Z</time>
      </trkpt>
      <trkpt lat="48.04923" lon="7.01664">
        <ele>1249.37</ele>
        <time>2018-02-06T13:52:54Z</time>
      </trkpt>
      <trkpt lat="48.0492" lon="7.01658">
        <ele>1246</ele>
        <time>2018-02-06T13:53:02Z</time>
      </trkpt>
      <trkpt lat="48.0492" lon="7.01656">
        <ele>1249.77</ele>
        <time>2018-02-06T13:53:03Z</time>
      </trkpt>
      <trkpt lat="48.04915" lon="7.0164">
        <ele>1253.05</ele>
        <time>2018-02-06T13:53:23Z</time>
      </trkpt>
      <trkpt lat="48.04912" lon="7.01633">
        <ele>1248.62</ele>
        <time>2018-02-06T13:53:33Z</time>
      </trkpt>
      <trkpt lat="48.04912" lon="7.01632">
        <ele>1253.74</ele>
        <time>2018-02-06T13:53:34Z</time>
      </trkpt>
      <trkpt lat="48.04911" lon="7.01632">
        <ele>1249.04</ele>
        <time>2018-02-06T13:53:35Z</time>
      </trkpt>
      <trkpt lat="48.04911" lon="7.0163">
        <ele>1255.28</ele>
        <time>2018-02-06T13:53:38Z</time>
      </trkpt>
      <trkpt lat="48.0491" lon="7.01629">
        <ele>1250.79</ele>
        <time>2018-02-06T13:53:39Z</time>
      </trkpt>
      <trkpt lat="48.04909" lon="7.01629">
        <ele>1254.08</ele>
        <time>2018-02-06T13:53:40Z</time>
      </trkpt>
      <trkpt lat="48.049" lon="7.01624">
        <ele>1255.1</ele>
        <time>2018-02-06T13:54:05Z</time>
      </trkpt>
      <trkpt lat="48.04894" lon="7.01619">
        <ele>1255.16</ele>
        <time>2018-02-06T13:54:39Z</time>
      </trkpt>
      <trkpt lat="48.04891" lon="7.01621">
        <ele>1254.06</ele>
        <time>2018-02-06T13:55:19Z</time>
      </trkpt>
      <trkpt lat="48.04891" lon="7.0162">
        <ele>1257.69</ele>
        <time>2018-02-06T13:55:21Z</time>
      </trkpt>
      <trkpt lat="48.04891" lon="7.01609">
        <ele>1258.49</ele>
        <time>2018-02-06T13:55:41Z</time>
      </trkpt>
      <trkpt lat="48.04889" lon="7.01605">
        <ele>1257.94</ele>
        <time>2018-02-06T13:56:01Z</time>
      </trkpt>
      <trkpt lat="48.04887" lon="7.01599">
        <ele>1256.88</ele>
        <time>2018-02-06T13:56:29Z</time>
      </trkpt>
      <trkpt lat="48.04886" lon="7.01601">
        <ele>1258.77</ele>
        <time>2018-02-06T13:56:54Z</time>
      </trkpt>
      <trkpt lat="48.04885" lon="7.01602">
        <ele>1258.37</ele>
        <time>2018-02-06T13:57:24Z</time>
      </trkpt>
      <trkpt lat="48.04883" lon="7.01601">
        <ele>1262.63</ele>
        <time>2018-02-06T13:57:51Z</time>
      </trkpt>
      <trkpt lat="48.04883" lon="7.016">
        <ele>1258.2</ele>
        <time>2018-02-06T13:57:52Z</time>
      </trkpt>
      <trkpt lat="48.04882" lon="7.01599">
        <ele>1260.26</ele>
        <time>2018-02-06T13:57:59Z</time>
      </trkpt>
      <trkpt lat="48.04877" lon="7.01588">
        <ele>1263.56</ele>
        <time>2018-02-06T13:58:21Z</time>
      </trkpt>
      <trkpt lat="48.04866" lon="7.01579">
        <ele>1262.31</ele>
        <time>2018-02-06T13:58:42Z</time>
      </trkpt>
      <trkpt lat="48.04865" lon="7.01579">
        <ele>1265.38</ele>
        <time>2018-02-06T13:58:43Z</time>
      </trkpt>
      <trkpt lat="48.04858" lon="7.0157">
        <ele>1265.52</ele>
        <time>2018-02-06T13:59:03Z</time>
      </trkpt>
      <trkpt lat="48.04854" lon="7.0156">
        <ele>1269.09</ele>
        <time>2018-02-06T13:59:24Z</time>
      </trkpt>
      <trkpt lat="48.04854" lon="7.01559">
        <ele>1268.78</ele>
        <time>2018-02-06T13:59:25Z</time>
      </trkpt>
      <trkpt lat="48.04847" lon="7.0155">
        <ele>1269.24</ele>
        <time>2018-02-06T13:59:44Z</time>
      </trkpt>
      <trkpt lat="48.04841" lon="7.01529">
        <ele>1271.65</ele>
        <time>2018-02-06T14:00:07Z</time>
      </trkpt>
      <trkpt lat="48.04826" lon="7.0152">
        <ele>1275.04</ele>
        <time>2018-02-06T14:00:28Z</time>
      </trkpt>
      <trkpt lat="48.04824" lon="7.01519">
        <ele>1270.67</ele>
        <time>2018-02-06T14:00:30Z</time>
      </trkpt>
      <trkpt lat="48.04824" lon="7.01519">
        <ele>1275.25</ele>
        <time>2018-02-06T14:00:31Z</time>
      </trkpt>
      <trkpt lat="48.04811" lon="7.01524">
        <ele>1270.79</ele>
        <time>2018-02-06T14:00:48Z</time>
      </trkpt>
      <trkpt lat="48.0481" lon="7.01525">
        <ele>1275.71</ele>
        <time>2018-02-06T14:00:49Z</time>
      </trkpt>
      <trkpt lat="48.048" lon="7.01522">
        <ele>1277.38</ele>
        <time>2018-02-06T14:01:06Z</time>
      </trkpt>
      <trkpt lat="48.04793" lon="7.01523">
        <ele>1278.08</ele>
        <time>2018-02-06T14:01:16Z</time>
      </trkpt>
      <trkpt lat="48.04782" lon="7.01524">
        <ele>1278.42</ele>
        <time>2018-02-06T14:01:29Z</time>
      </trkpt>
      <trkpt lat="48.04774" lon="7.01525">
        <ele>1282.01</ele>
        <time>2018-02-06T14:01:35Z</time>
      </trkpt>
      <trkpt lat="48.04773" lon="7.01525">
        <ele>1278.42</ele>
        <time>2018-02-06T14:01:36Z</time>
      </trkpt>
      <trkpt lat="48.04762" lon="7.01527">
        <ele>1279.5</ele>
        <time>2018-02-06T14:01:50Z</time>
      </trkpt>
      <trkpt lat="48.04757" lon="7.0153">
        <ele>1279.26</ele>
        <time>2018-02-06T14:01:54Z</time>
      </trkpt>
      <trkpt lat="48.04752" lon="7.01532">
        <ele>1281.96</ele>
        <time>2018-02-06T14:02:00Z</time>
      </trkpt>
      <trkpt lat="48.0475" lon="7.01536">
        <ele>1280.19</ele>
        <time>2018-02-06T14:02:20Z</time>
      </trkpt>
      <trkpt lat="48.04749" lon="7.01536">
        <ele>1280.28</ele>
        <time>2018-02-06T14:02:39Z</time>
      </trkpt>
      <trkpt lat="48.04748" lon="7.01534">
        <ele>1280.69</ele>
        <time>2018-02-06T14:03:00Z</time>
      </trkpt>
      <trkpt lat="48.0475" lon="7.01536">
        <ele>1280.85</ele>
        <time>2018-02-06T14:03:21Z</time>
      </trkpt>
      <trkpt lat="48.0475" lon="7.01537">
        <ele>1280.31</ele>
        <time>2018-02-06T14:03:40Z</time>
      </trkpt>
      <trkpt lat="48.0475" lon="7.01538">
        <ele>1280.34</ele>
        <time>2018-02-06T14:04:10Z</time>
      </trkpt>
      <trkpt lat="48.0475" lon="7.01536">
        <ele>1280.49</ele>
        <time>2018-02-06T14:04:33Z</time>
      </trkpt>
      <trkpt lat="48.04751" lon="7.01531">
        <ele>1280.14</ele>
        <time>2018-02-06T14:04:57Z</time>
      </trkpt>
      <trkpt lat="48.0475" lon="7.0152">
        <ele>1280.6</ele>
        <time>2018-02-06T14:05:12Z</time>
      </trkpt>
      <trkpt lat="48.04746" lon="7.01517">
        <ele>1279.99</ele>
        <time>2018-02-06T14:05:26Z</time>
      </trkpt>
      <trkpt lat="48.0474" lon="7.01506">
        <ele>1280.73</ele>
        <time>2018-02-06T14:05:45Z</time>
      </trkpt>
      <trkpt lat="48.04739" lon="7.01509">
        <ele>1280.2</ele>
        <time>2018-02-06T14:06:03Z</time>
      </trkpt>
      <trkpt lat="48.04739" lon="7.01512">
        <ele>1280.28</ele>
        <time>2018-02-06T14:06:05Z</time>
      </trkpt>
      <trkpt lat="48.04726" lon="7.01525">
        <ele>1281.38</ele>
        <time>2018-02-06T14:06:20Z</time>
      </trkpt>
      <trkpt lat="48.04721" lon="7.01531">
        <ele>1281.38</ele>
        <time>2018-02-06T14:06:33Z</time>
      </trkpt>
      <trkpt lat="48.04697" lon="7.01539">
        <ele>1281.83</ele>
        <time>2018-02-06T14:06:55Z</time>
      </trkpt>
      <trkpt lat="48.047" lon="7.01549">
        <ele>1282.46</ele>
        <time>2018-02-06T14:07:09Z</time>
      </trkpt>
      <trkpt lat="48.04701" lon="7.01552">
        <ele>1282.52</ele>
        <time>2018-02-06T14:07:11Z</time>
      </trkpt>
      <trkpt lat="48.04703" lon="7.0156">
        <ele>1284.97</ele>
        <time>2018-02-06T14:07:17Z</time>
      </trkpt>
      <trkpt lat="48.04703" lon="7.01561">
        <ele>1280.7</ele>
        <time>2018-02-06T14:07:18Z</time>
      </trkpt>
      <trkpt lat="48.04702" lon="7.01562">
        <ele>1284.1</ele>
        <time>2018-02-06T14:07:20Z</time>
      </trkpt>
      <trkpt lat="48.047" lon="7.01566">
        <ele>1282.47</ele>
        <time>2018-02-06T14:07:40Z</time>
      </trkpt>
      <trkpt lat="48.047" lon="7.01569">
        <ele>1282.17</ele>
        <time>2018-02-06T14:07:56Z</time>
      </trkpt>
      <trkpt lat="48.04706" lon="7.01558">
        <ele>1282.61</ele>
        <time>2018-02-06T14:08:13Z</time>
      </trkpt>
      <trkpt lat="48.04705" lon="7.01552">
        <ele>1282.8</ele>
        <time>2018-02-06T14:08:29Z</time>
      </trkpt>
      <trkpt lat="48.04704" lon="7.01551">
        <ele>1282.47</ele>
        <time>2018-02-06T14:09:08Z</time>
      </trkpt>
      <trkpt lat="48.04706" lon="7.01549">
        <ele>1282.01</ele>
        <time>2018-02-06T14:09:26Z</time>
      </trkpt>
      <trkpt lat="48.04707" lon="7.01544">
        <ele>1282.79</ele>
        <time>2018-02-06T14:09:30Z</time>
      </trkpt>
      <trkpt lat="48.04708" lon="7.0154">
        <ele>1281.35</ele>
        <time>2018-02-06T14:09:33Z</time>
      </trkpt>
      <trkpt lat="48.04713" lon="7.01534">
        <ele>1281.5</ele>
        <time>2018-02-06T14:09:48Z</time>
      </trkpt>
      <trkpt lat="48.04713" lon="7.01533">
        <ele>1281.05</ele>
        <time>2018-02-06T14:10:06Z</time>
      </trkpt>
      <trkpt lat="48.04715" lon="7.01526">
        <ele>1281.15</ele>
        <time>2018-02-06T14:10:15Z</time>
      </trkpt>
      <trkpt lat="48.04719" lon="7.01524">
        <ele>1280.97</ele>
        <time>2018-02-06T14:10:19Z</time>
      </trkpt>
      <trkpt lat="48.04742" lon="7.01513">
        <ele>1280.2</ele>
        <time>2018-02-06T14:10:39Z</time>
      </trkpt>
      <trkpt lat="48.04746" lon="7.01511">
        <ele>1279.8</ele>
        <time>2018-02-06T14:10:47Z</time>
      </trkpt>
      <trkpt lat="48.04746" lon="7.01507">
        <ele>1280.05</ele>
        <time>2018-02-06T14:11:01Z</time>
      </trkpt>
      <trkpt lat="48.04744" lon="7.01514">
        <ele>1279.76</ele>
        <time>2018-02-06T14:11:17Z</time>
      </trkpt>
      <trkpt lat="48.04745" lon="7.01512">
        <ele>1279.5</ele>
        <time>2018-02-06T14:11:48Z</time>
      </trkpt>
      <trkpt lat="48.0474" lon="7.01512">
        <ele>1280.12</ele>
        <time>2018-02-06T14:12:09Z</time>
      </trkpt>
      <trkpt lat="48.04726" lon="7.01514">
        <ele>1281.95</ele>
        <time>2018-02-06T14:12:25Z</time>
      </trkpt>
      <trkpt lat="48.04712" lon="7.01508">
        <ele>1281.65</ele>
        <time>2018-02-06T14:12:44Z</time>
      </trkpt>
      <trkpt lat="48.04711" lon="7.01502">
        <ele>1282.44</ele>
        <time>2018-02-06T14:12:49Z</time>
      </trkpt>
      <trkpt lat="48.04711" lon="7.015">
        <ele>1280.37</ele>
        <time>2018-02-06T14:12:51Z</time>
      </trkpt>
      <trkpt lat="48.04709" lon="7.01489">
        <ele>1281.2</ele>
        <time>2018-02-06T14:13:09Z</time>
      </trkpt>
      <trkpt lat="48.04708" lon="7.01483">
        <ele>1280.11</ele>
        <time>2018-02-06T14:13:15Z</time>
      </trkpt>
      <trkpt lat="48.04706" lon="7.01473">
        <ele>1280.95</ele>
        <time>2018-02-06T14:13:21Z</time>
      </trkpt>
      <trkpt lat="48.04704" lon="7.01461">
        <ele>1282.47</ele>
        <time>2018-02-06T14:13:28Z</time>
      </trkpt>
      <trkpt lat="48.04706" lon="7.01455">
        <ele>1282.63</ele>
        <time>2018-02-06T14:13:32Z</time>
      </trkpt>
      <trkpt lat="48.04707" lon="7.01451">
        <ele>1282.36</ele>
        <time>2018-02-06T14:13:35Z</time>
      </trkpt>
      <trkpt lat="48.04704" lon="7.01442">
        <ele>1282.62</ele>
        <time>2018-02-06T14:13:49Z</time>
      </trkpt>
      <trkpt lat="48.04704" lon="7.01438">
        <ele>1282.16</ele>
        <time>2018-02-06T14:13:52Z</time>
      </trkpt>
      <trkpt lat="48.04692" lon="7.01418">
        <ele>1282.56</ele>
        <time>2018-02-06T14:14:10Z</time>
      </trkpt>
      <trkpt lat="48.04685" lon="7.01407">
        <ele>1282.81</ele>
        <time>2018-02-06T14:14:21Z</time>
      </trkpt>
      <trkpt lat="48.04682" lon="7.01403">
        <ele>1272.33</ele>
        <time>2018-02-06T14:14:26Z</time>
      </trkpt>
      <trkpt lat="48.04681" lon="7.01403">
        <ele>1272.29</ele>
        <time>2018-02-06T14:14:27Z</time>
      </trkpt>
      <trkpt lat="48.04684" lon="7.01404">
        <ele>1272.36</ele>
        <time>2018-02-06T14:14:29Z</time>
      </trkpt>
      <trkpt lat="48.04688" lon="7.01413">
        <ele>1282.54</ele>
        <time>2018-02-06T14:14:33Z</time>
      </trkpt>
      <trkpt lat="48.04685" lon="7.01407">
        <ele>1283.49</ele>
        <time>2018-02-06T14:14:35Z</time>
      </trkpt>
      <trkpt lat="48.04683" lon="7.01405">
        <ele>1283.02</ele>
        <time>2018-02-06T14:14:36Z</time>
      </trkpt>
      <trkpt lat="48.04681" lon="7.01403">
        <ele>1282.74</ele>
        <time>2018-02-06T14:14:37Z</time>
      </trkpt>
      <trkpt lat="48.0468" lon="7.01402">
        <ele>1283.07</ele>
        <time>2018-02-06T14:14:38Z</time>
      </trkpt>
      <trkpt lat="48.04678" lon="7.01401">
        <ele>1283.47</ele>
        <time>2018-02-06T14:14:39Z</time>
      </trkpt>
      <trkpt lat="48.04677" lon="7.01399">
        <ele>1282.93</ele>
        <time>2018-02-06T14:14:40Z</time>
      </trkpt>
      <trkpt lat="48.04676" lon="7.01398">
        <ele>1282.71</ele>
        <time>2018-02-06T14:14:41Z</time>
      </trkpt>
      <trkpt lat="48.04674" lon="7.01397">
        <ele>1282.53</ele>
        <time>2018-02-06T14:14:42Z</time>
      </trkpt>
      <trkpt lat="48.04657" lon="7.01379">
        <ele>1283.27</ele>
        <time>2018-02-06T14:15:00Z</time>
      </trkpt>
      <trkpt lat="48.04641" lon="7.01364">
        <ele>1284.73</ele>
        <time>2018-02-06T14:15:18Z</time>
      </trkpt>
      <trkpt lat="48.04632" lon="7.01358">
        <ele>1286.41</ele>
        <time>2018-02-06T14:15:28Z</time>
      </trkpt>
      <trkpt lat="48.04618" lon="7.01349">
        <ele>1285.71</ele>
        <time>2018-02-06T14:15:43Z</time>
      </trkpt>
      <trkpt lat="48.04608" lon="7.01342">
        <ele>1286.48</ele>
        <time>2018-02-06T14:15:56Z</time>
      </trkpt>
      <trkpt lat="48.04593" lon="7.0133">
        <ele>1288.28</ele>
        <time>2018-02-06T14:16:14Z</time>
      </trkpt>
      <trkpt lat="48.04576" lon="7.01318">
        <ele>1288.36</ele>
        <time>2018-02-06T14:16:34Z</time>
      </trkpt>
      <trkpt lat="48.04569" lon="7.01313">
        <ele>1289.18</ele>
        <time>2018-02-06T14:16:42Z</time>
      </trkpt>
      <trkpt lat="48.04566" lon="7.01311">
        <ele>1289.23</ele>
        <time>2018-02-06T14:16:45Z</time>
      </trkpt>
      <trkpt lat="48.04555" lon="7.01304">
        <ele>1292.39</ele>
        <time>2018-02-06T14:16:58Z</time>
      </trkpt>
      <trkpt lat="48.04548" lon="7.01299">
        <ele>1292.82</ele>
        <time>2018-02-06T14:17:07Z</time>
      </trkpt>
      <trkpt lat="48.04536" lon="7.01289">
        <ele>1293.25</ele>
        <time>2018-02-06T14:17:23Z</time>
      </trkpt>
      <trkpt lat="48.04522" lon="7.01278">
        <ele>1294.51</ele>
        <time>2018-02-06T14:17:43Z</time>
      </trkpt>
      <trkpt lat="48.04505" lon="7.01267">
        <ele>1296.82</ele>
        <time>2018-02-06T14:18:04Z</time>
      </trkpt>
      <trkpt lat="48.04492" lon="7.01257">
        <ele>1296.38</ele>
        <time>2018-02-06T14:18:23Z</time>
      </trkpt>
      <trkpt lat="48.04491" lon="7.01256">
        <ele>1297.24</ele>
        <time>2018-02-06T14:18:25Z</time>
      </trkpt>
      <trkpt lat="48.0449" lon="7.01255">
        <ele>1297.16</ele>
        <time>2018-02-06T14:18:26Z</time>
      </trkpt>
      <trkpt lat="48.04476" lon="7.01246">
        <ele>1299.95</ele>
        <time>2018-02-06T14:18:45Z</time>
      </trkpt>
      <trkpt lat="48.04463" lon="7.01238">
        <ele>1300.1</ele>
        <time>2018-02-06T14:19:02Z</time>
      </trkpt>
      <trkpt lat="48.04452" lon="7.01228">
        <ele>1301.32</ele>
        <time>2018-02-06T14:19:19Z</time>
      </trkpt>
      <trkpt lat="48.04441" lon="7.01219">
        <ele>1302.98</ele>
        <time>2018-02-06T14:19:36Z</time>
      </trkpt>
      <trkpt lat="48.04441" lon="7.01217">
        <ele>1302.55</ele>
        <time>2018-02-06T14:19:56Z</time>
      </trkpt>
      <trkpt lat="48.04442" lon="7.01217">
        <ele>1302.64</ele>
        <time>2018-02-06T14:19:57Z</time>
      </trkpt>
      <trkpt lat="48.0444" lon="7.01213">
        <ele>1303.54</ele>
        <time>2018-02-06T14:20:32Z</time>
      </trkpt>
      <trkpt lat="48.04439" lon="7.01211">
        <ele>1303.34</ele>
        <time>2018-02-06T14:20:51Z</time>
      </trkpt>
      <trkpt lat="48.04431" lon="7.01205">
        <ele>1303.43</ele>
        <time>2018-02-06T14:21:07Z</time>
      </trkpt>
      <trkpt lat="48.04428" lon="7.01203">
        <ele>1303.71</ele>
        <time>2018-02-06T14:21:24Z</time>
      </trkpt>
      <trkpt lat="48.04428" lon="7.01206">
        <ele>1303.47</ele>
        <time>2018-02-06T14:21:42Z</time>
      </trkpt>
      <trkpt lat="48.04433" lon="7.01209">
        <ele>1303.19</ele>
        <time>2018-02-06T14:22:03Z</time>
      </trkpt>
      <trkpt lat="48.04433" lon="7.01211">
        <ele>1303.38</ele>
        <time>2018-02-06T14:22:26Z</time>
      </trkpt>
      <trkpt lat="48.04433" lon="7.01211">
        <ele>1302.4</ele>
        <time>2018-02-06T14:22:47Z</time>
      </trkpt>
      <trkpt lat="48.04426" lon="7.01208">
        <ele>1302.69</ele>
        <time>2018-02-06T14:23:07Z</time>
      </trkpt>
      <trkpt lat="48.04415" lon="7.01203">
        <ele>1302.3</ele>
        <time>2018-02-06T14:23:23Z</time>
      </trkpt>
      <trkpt lat="48.04412" lon="7.01202">
        <ele>1303.16</ele>
        <time>2018-02-06T14:23:26Z</time>
      </trkpt>
      <trkpt lat="48.04405" lon="7.01197">
        <ele>1302.9</ele>
        <time>2018-02-06T14:23:41Z</time>
      </trkpt>
      <trkpt lat="48.04404" lon="7.01196">
        <ele>1303.28</ele>
        <time>2018-02-06T14:23:42Z</time>
      </trkpt>
      <trkpt lat="48.04388" lon="7.01189">
        <ele>1303.04</ele>
        <time>2018-02-06T14:24:00Z</time>
      </trkpt>
      <trkpt lat="48.04371" lon="7.01183">
        <ele>1303.36</ele>
        <time>2018-02-06T14:24:18Z</time>
      </trkpt>
      <trkpt lat="48.04355" lon="7.01176">
        <ele>1303.28</ele>
        <time>2018-02-06T14:24:35Z</time>
      </trkpt>
      <trkpt lat="48.04333" lon="7.01167">
        <ele>1304.67</ele>
        <time>2018-02-06T14:24:57Z</time>
      </trkpt>
      <trkpt lat="48.04317" lon="7.01161">
        <ele>1305.53</ele>
        <time>2018-02-06T14:25:16Z</time>
      </trkpt>
      <trkpt lat="48.04313" lon="7.01159">
        <ele>1306.78</ele>
        <time>2018-02-06T14:25:21Z</time>
      </trkpt>
      <trkpt lat="48.04306" lon="7.01156">
        <ele>1308.14</ele>
        <time>2018-02-06T14:25:28Z</time>
      </trkpt>
      <trkpt lat="48.04305" lon="7.01155">
        <ele>1306.21</ele>
        <time>2018-02-06T14:25:29Z</time>
      </trkpt>
      <trkpt lat="48.04304" lon="7.01154">
        <ele>1306.16</ele>
        <time>2018-02-06T14:25:30Z</time>
      </trkpt>
      <trkpt lat="48.04303" lon="7.01153">
        <ele>1308.37</ele>
        <time>2018-02-06T14:25:31Z</time>
      </trkpt>
      <trkpt lat="48.04302" lon="7.01153">
        <ele>1307.13</ele>
        <time>2018-02-06T14:25:32Z</time>
      </trkpt>
      <trkpt lat="48.04301" lon="7.01152">
        <ele>1306.71</ele>
        <time>2018-02-06T14:25:33Z</time>
      </trkpt>
      <trkpt lat="48.043" lon="7.01152">
        <ele>1306.94</ele>
        <time>2018-02-06T14:25:34Z</time>
      </trkpt>
      <trkpt lat="48.04284" lon="7.01144">
        <ele>1307.38</ele>
        <time>2018-02-06T14:25:51Z</time>
      </trkpt>
      <trkpt lat="48.04271" lon="7.0114">
        <ele>1307.35</ele>
        <time>2018-02-06T14:26:06Z</time>
      </trkpt>
      <trkpt lat="48.0427" lon="7.01141">
        <ele>1306.98</ele>
        <time>2018-02-06T14:26:07Z</time>
      </trkpt>
      <trkpt lat="48.04269" lon="7.01142">
        <ele>1306.93</ele>
        <time>2018-02-06T14:26:08Z</time>
      </trkpt>
      <trkpt lat="48.04266" lon="7.01144">
        <ele>1307.74</ele>
        <time>2018-02-06T14:26:25Z</time>
      </trkpt>
      <trkpt lat="48.04265" lon="7.01144">
        <ele>1307.81</ele>
        <time>2018-02-06T14:26:49Z</time>
      </trkpt>
      <trkpt lat="48.04262" lon="7.01142">
        <ele>1306.86</ele>
        <time>2018-02-06T14:27:11Z</time>
      </trkpt>
      <trkpt lat="48.04256" lon="7.01141">
        <ele>1307.18</ele>
        <time>2018-02-06T14:27:27Z</time>
      </trkpt>
      <trkpt lat="48.04256" lon="7.01146">
        <ele>1304.59</ele>
        <time>2018-02-06T14:27:31Z</time>
      </trkpt>
      <trkpt lat="48.0425" lon="7.01148">
        <ele>1303.49</ele>
        <time>2018-02-06T14:27:47Z</time>
      </trkpt>
      <trkpt lat="48.04249" lon="7.01146">
        <ele>1303.57</ele>
        <time>2018-02-06T14:27:49Z</time>
      </trkpt>
      <trkpt lat="48.04248" lon="7.01146">
        <ele>1303.45</ele>
        <time>2018-02-06T14:27:50Z</time>
      </trkpt>
      <trkpt lat="48.04245" lon="7.01148">
        <ele>1303.1</ele>
        <time>2018-02-06T14:28:05Z</time>
      </trkpt>
      <trkpt lat="48.04244" lon="7.01147">
        <ele>1302.89</ele>
        <time>2018-02-06T14:28:47Z</time>
      </trkpt>
      <trkpt lat="48.04242" lon="7.01148">
        <ele>1302.89</ele>
        <time>2018-02-06T14:29:02Z</time>
      </trkpt>
      <trkpt lat="48.04242" lon="7.01148">
        <ele>1303.35</ele>
        <time>2018-02-06T14:29:23Z</time>
      </trkpt>
      <trkpt lat="48.04242" lon="7.01147">
        <ele>1303.24</ele>
        <time>2018-02-06T14:30:00Z</time>
      </trkpt>
      <trkpt lat="48.04241" lon="7.01142">
        <ele>1302.13</ele>
        <time>2018-02-06T14:30:28Z</time>
      </trkpt>
      <trkpt lat="48.04239" lon="7.01139">
        <ele>1301.98</ele>
        <time>2018-02-06T14:30:31Z</time>
      </trkpt>
      <trkpt lat="48.04223" lon="7.0113">
        <ele>1299.79</ele>
        <time>2018-02-06T14:30:48Z</time>
      </trkpt>
      <trkpt lat="48.0421" lon="7.01125">
        <ele>1298.99</ele>
        <time>2018-02-06T14:31:03Z</time>
      </trkpt>
      <trkpt lat="48.04209" lon="7.01123">
        <ele>1298.86</ele>
        <time>2018-02-06T14:31:27Z</time>
      </trkpt>
      <trkpt lat="48.042" lon="7.01117">
        <ele>1297.41</ele>
        <time>2018-02-06T14:31:46Z</time>
      </trkpt>
      <trkpt lat="48.04198" lon="7.01116">
        <ele>1298.19</ele>
        <time>2018-02-06T14:31:48Z</time>
      </trkpt>
      <trkpt lat="48.04188" lon="7.01111">
        <ele>1296.65</ele>
        <time>2018-02-06T14:32:00Z</time>
      </trkpt>
      <trkpt lat="48.04175" lon="7.01108">
        <ele>1297.4</ele>
        <time>2018-02-06T14:32:13Z</time>
      </trkpt>
      <trkpt lat="48.04174" lon="7.01108">
        <ele>1297.01</ele>
        <time>2018-02-06T14:32:14Z</time>
      </trkpt>
      <trkpt lat="48.04172" lon="7.01107">
        <ele>1296.62</ele>
        <time>2018-02-06T14:32:15Z</time>
      </trkpt>
      <trkpt lat="48.04171" lon="7.01107">
        <ele>1296.99</ele>
        <time>2018-02-06T14:32:16Z</time>
      </trkpt>
      <trkpt lat="48.0417" lon="7.01106">
        <ele>1298.06</ele>
        <time>2018-02-06T14:32:17Z</time>
      </trkpt>
      <trkpt lat="48.04169" lon="7.01106">
        <ele>1298.4</ele>
        <time>2018-02-06T14:32:18Z</time>
      </trkpt>
      <trkpt lat="48.04164" lon="7.01104">
        <ele>1298.94</ele>
        <time>2018-02-06T14:32:23Z</time>
      </trkpt>
      <trkpt lat="48.04163" lon="7.01103">
        <ele>1297.6</ele>
        <time>2018-02-06T14:32:24Z</time>
      </trkpt>
      <trkpt lat="48.04152" lon="7.01096">
        <ele>1299.51</ele>
        <time>2018-02-06T14:32:39Z</time>
      </trkpt>
      <trkpt lat="48.04142" lon="7.01087">
        <ele>1300.1</ele>
        <time>2018-02-06T14:32:54Z</time>
      </trkpt>
      <trkpt lat="48.04141" lon="7.01086">
        <ele>1299.89</ele>
        <time>2018-02-06T14:33:08Z</time>
      </trkpt>
      <trkpt lat="48.04142" lon="7.01087">
        <ele>1300.15</ele>
        <time>2018-02-06T14:33:29Z</time>
      </trkpt>
      <trkpt lat="48.04143" lon="7.01087">
        <ele>1299.93</ele>
        <time>2018-02-06T14:33:54Z</time>
      </trkpt>
      <trkpt lat="48.04142" lon="7.01087">
        <ele>1299.09</ele>
        <time>2018-02-06T14:34:22Z</time>
      </trkpt>
      <trkpt lat="48.0414" lon="7.01086">
        <ele>1299.79</ele>
        <time>2018-02-06T14:34:42Z</time>
      </trkpt>
      <trkpt lat="48.04138" lon="7.01078">
        <ele>1299.28</ele>
        <time>2018-02-06T14:35:03Z</time>
      </trkpt>
      <trkpt lat="48.04136" lon="7.01067">
        <ele>1297.68</ele>
        <time>2018-02-06T14:35:12Z</time>
      </trkpt>
      <trkpt lat="48.04136" lon="7.01066">
        <ele>1297.48</ele>
        <time>2018-02-06T14:35:13Z</time>
      </trkpt>
      <trkpt lat="48.04135" lon="7.01061">
        <ele>1297.3</ele>
        <time>2018-02-06T14:35:16Z</time>
      </trkpt>
      <trkpt lat="48.04128" lon="7.01037">
        <ele>1295.27</ele>
        <time>2018-02-06T14:35:35Z</time>
      </trkpt>
      <trkpt lat="48.04122" lon="7.01007">
        <ele>1292.65</ele>
        <time>2018-02-06T14:35:56Z</time>
      </trkpt>
      <trkpt lat="48.0412" lon="7.01">
        <ele>1291.88</ele>
        <time>2018-02-06T14:36:01Z</time>
      </trkpt>
      <trkpt lat="48.04121" lon="7.0099">
        <ele>1290.4</ele>
        <time>2018-02-06T14:36:11Z</time>
      </trkpt>
      <trkpt lat="48.04123" lon="7.00973">
        <ele>1291.25</ele>
        <time>2018-02-06T14:36:29Z</time>
      </trkpt>
      <trkpt lat="48.04124" lon="7.00964">
        <ele>1291.18</ele>
        <time>2018-02-06T14:36:43Z</time>
      </trkpt>
      <trkpt lat="48.04123" lon="7.00962">
        <ele>1290.48</ele>
        <time>2018-02-06T14:36:51Z</time>
      </trkpt>
      <trkpt lat="48.04125" lon="7.00947">
        <ele>1290.54</ele>
        <time>2018-02-06T14:36:59Z</time>
      </trkpt>
      <trkpt lat="48.04125" lon="7.00944">
        <ele>1291.52</ele>
        <time>2018-02-06T14:37:01Z</time>
      </trkpt>
      <trkpt lat="48.04126" lon="7.00933">
        <ele>1291</ele>
        <time>2018-02-06T14:37:09Z</time>
      </trkpt>
      <trkpt lat="48.04126" lon="7.00928">
        <ele>1291.25</ele>
        <time>2018-02-06T14:37:18Z</time>
      </trkpt>
      <trkpt lat="48.04126" lon="7.00923">
        <ele>1292.19</ele>
        <time>2018-02-06T14:37:21Z</time>
      </trkpt>
      <trkpt lat="48.04126" lon="7.00907">
        <ele>1290.95</ele>
        <time>2018-02-06T14:37:31Z</time>
      </trkpt>
      <trkpt lat="48.04126" lon="7.00902">
        <ele>1289.59</ele>
        <time>2018-02-06T14:37:34Z</time>
      </trkpt>
      <trkpt lat="48.04126" lon="7.009">
        <ele>1290.61</ele>
        <time>2018-02-06T14:37:35Z</time>
      </trkpt>
      <trkpt lat="48.04127" lon="7.00893">
        <ele>1289.53</ele>
        <time>2018-02-06T14:37:40Z</time>
      </trkpt>
      <trkpt lat="48.04127" lon="7.00886">
        <ele>1289.11</ele>
        <time>2018-02-06T14:37:44Z</time>
      </trkpt>
      <trkpt lat="48.04129" lon="7.00872">
        <ele>1288.69</ele>
        <time>2018-02-06T14:37:58Z</time>
      </trkpt>
      <trkpt lat="48.04131" lon="7.00858">
        <ele>1288.1</ele>
        <time>2018-02-06T14:38:10Z</time>
      </trkpt>
      <trkpt lat="48.04132" lon="7.00851">
        <ele>1287.82</ele>
        <time>2018-02-06T14:38:14Z</time>
      </trkpt>
      <trkpt lat="48.04132" lon="7.00841">
        <ele>1287.23</ele>
        <time>2018-02-06T14:38:22Z</time>
      </trkpt>
      <trkpt lat="48.04132" lon="7.00837">
        <ele>1287.77</ele>
        <time>2018-02-06T14:38:25Z</time>
      </trkpt>
      <trkpt lat="48.0414" lon="7.0081">
        <ele>1286.5</ele>
        <time>2018-02-06T14:38:41Z</time>
      </trkpt>
      <trkpt lat="48.04144" lon="7.00802">
        <ele>1286.14</ele>
        <time>2018-02-06T14:38:51Z</time>
      </trkpt>
      <trkpt lat="48.04147" lon="7.00798">
        <ele>1285.92</ele>
        <time>2018-02-06T14:38:54Z</time>
      </trkpt>
      <trkpt lat="48.04151" lon="7.00792">
        <ele>1286.84</ele>
        <time>2018-02-06T14:38:59Z</time>
      </trkpt>
      <trkpt lat="48.04152" lon="7.00789">
        <ele>1285.67</ele>
        <time>2018-02-06T14:39:01Z</time>
      </trkpt>
      <trkpt lat="48.04153" lon="7.00787">
        <ele>1286.77</ele>
        <time>2018-02-06T14:39:03Z</time>
      </trkpt>
      <trkpt lat="48.04158" lon="7.00766">
        <ele>1284.63</ele>
        <time>2018-02-06T14:39:19Z</time>
      </trkpt>
      <trkpt lat="48.0417" lon="7.0074">
        <ele>1282.2</ele>
        <time>2018-02-06T14:39:40Z</time>
      </trkpt>
      <trkpt lat="48.04186" lon="7.00716">
        <ele>1281.89</ele>
        <time>2018-02-06T14:40:01Z</time>
      </trkpt>
      <trkpt lat="48.042" lon="7.00699">
        <ele>1280.51</ele>
        <time>2018-02-06T14:40:19Z</time>
      </trkpt>
      <trkpt lat="48.04202" lon="7.00697">
        <ele>1279.28</ele>
        <time>2018-02-06T14:40:22Z</time>
      </trkpt>
      <trkpt lat="48.042" lon="7.00694">
        <ele>1280.12</ele>
        <time>2018-02-06T14:40:34Z</time>
      </trkpt>
      <trkpt lat="48.04201" lon="7.00693">
        <ele>1280.14</ele>
        <time>2018-02-06T14:41:07Z</time>
      </trkpt>
      <trkpt lat="48.04203" lon="7.00692">
        <ele>1281.3</ele>
        <time>2018-02-06T14:41:10Z</time>
      </trkpt>
      <trkpt lat="48.04219" lon="7.00682">
        <ele>1278.63</ele>
        <time>2018-02-06T14:41:26Z</time>
      </trkpt>
      <trkpt lat="48.0422" lon="7.00682">
        <ele>1279.12</ele>
        <time>2018-02-06T14:41:27Z</time>
      </trkpt>
      <trkpt lat="48.04227" lon="7.00675">
        <ele>1277.96</ele>
        <time>2018-02-06T14:41:37Z</time>
      </trkpt>
      <trkpt lat="48.04235" lon="7.00668">
        <ele>1277.05</ele>
        <time>2018-02-06T14:41:53Z</time>
      </trkpt>
      <trkpt lat="48.04237" lon="7.00666">
        <ele>1277.13</ele>
        <time>2018-02-06T14:42:03Z</time>
      </trkpt>
      <trkpt lat="48.04255" lon="7.00653">
        <ele>1276.09</ele>
        <time>2018-02-06T14:42:21Z</time>
      </trkpt>
      <trkpt lat="48.04258" lon="7.00652">
        <ele>1275.38</ele>
        <time>2018-02-06T14:42:25Z</time>
      </trkpt>
      <trkpt lat="48.04279" lon="7.00649">
        <ele>1275.44</ele>
        <time>2018-02-06T14:42:44Z</time>
      </trkpt>
      <trkpt lat="48.04285" lon="7.00648">
        <ele>1274.46</ele>
        <time>2018-02-06T14:43:02Z</time>
      </trkpt>
      <trkpt lat="48.04286" lon="7.00648">
        <ele>1274.51</ele>
        <time>2018-02-06T14:43:03Z</time>
      </trkpt>
      <trkpt lat="48.0429" lon="7.00647">
        <ele>1273.68</ele>
        <time>2018-02-06T14:43:08Z</time>
      </trkpt>
      <trkpt lat="48.04297" lon="7.00649">
        <ele>1273.71</ele>
        <time>2018-02-06T14:43:14Z</time>
      </trkpt>
      <trkpt lat="48.04317" lon="7.00653">
        <ele>1271.12</ele>
        <time>2018-02-06T14:43:29Z</time>
      </trkpt>
      <trkpt lat="48.04321" lon="7.00655">
        <ele>1271.4</ele>
        <time>2018-02-06T14:43:34Z</time>
      </trkpt>
      <trkpt lat="48.04326" lon="7.00656">
        <ele>1272.21</ele>
        <time>2018-02-06T14:43:41Z</time>
      </trkpt>
      <trkpt lat="48.04328" lon="7.00657">
        <ele>1271.64</ele>
        <time>2018-02-06T14:44:02Z</time>
      </trkpt>
      <trkpt lat="48.04328" lon="7.00657">
        <ele>1271.82</ele>
        <time>2018-02-06T14:44:37Z</time>
      </trkpt>
      <trkpt lat="48.04328" lon="7.00657">
        <ele>1265.83</ele>
        <time>2018-02-06T14:44:45Z</time>
      </trkpt>
      <trkpt lat="48.04328" lon="7.00657">
        <ele>1270.96</ele>
        <time>2018-02-06T14:44:47Z</time>
      </trkpt>
      <trkpt lat="48.04329" lon="7.00657">
        <ele>1270.54</ele>
        <time>2018-02-06T14:44:48Z</time>
      </trkpt>
      <trkpt lat="48.04329" lon="7.00657">
        <ele>1272.66</ele>
        <time>2018-02-06T14:44:55Z</time>
      </trkpt>
      <trkpt lat="48.04329" lon="7.00657">
        <ele>1284.33</ele>
        <time>2018-02-06T14:44:56Z</time>
      </trkpt>
      <trkpt lat="48.04329" lon="7.00657">
        <ele>1272.66</ele>
        <time>2018-02-06T14:44:57Z</time>
      </trkpt>
      <trkpt lat="48.04329" lon="7.00657">
        <ele>1271.69</ele>
        <time>2018-02-06T14:44:59Z</time>
      </trkpt>
      <trkpt lat="48.04329" lon="7.00656">
        <ele>1268.44</ele>
        <time>2018-02-06T14:45:11Z</time>
      </trkpt>
      <trkpt lat="48.04329" lon="7.00656">
        <ele>1263.21</ele>
        <time>2018-02-06T14:45:12Z</time>
      </trkpt>
      <trkpt lat="48.04329" lon="7.00656">
        <ele>1281.15</ele>
        <time>2018-02-06T14:45:13Z</time>
      </trkpt>
      <trkpt lat="48.04329" lon="7.00656">
        <ele>1272.48</ele>
        <time>2018-02-06T14:45:14Z</time>
      </trkpt>
      <trkpt lat="48.04329" lon="7.00656">
        <ele>1259.85</ele>
        <time>2018-02-06T14:45:15Z</time>
      </trkpt>
      <trkpt lat="48.04329" lon="7.00656">
        <ele>1272.18</ele>
        <time>2018-02-06T14:45:16Z</time>
      </trkpt>
      <trkpt lat="48.04329" lon="7.00656">
        <ele>1280.53</ele>
        <time>2018-02-06T14:45:19Z</time>
      </trkpt>
      <trkpt lat="48.04329" lon="7.00656">
        <ele>1272.57</ele>
        <time>2018-02-06T14:45:20Z</time>
      </trkpt>
      <trkpt lat="48.04329" lon="7.00654">
        <ele>1272.08</ele>
        <time>2018-02-06T14:45:45Z</time>
      </trkpt>
      <trkpt lat="48.0433" lon="7.00652">
        <ele>1271.69</ele>
        <time>2018-02-06T14:46:13Z</time>
      </trkpt>
      <trkpt lat="48.04331" lon="7.00653">
        <ele>1271.71</ele>
        <time>2018-02-06T14:46:14Z</time>
      </trkpt>
      <trkpt lat="48.04338" lon="7.0066">
        <ele>1270.86</ele>
        <time>2018-02-06T14:46:22Z</time>
      </trkpt>
      <trkpt lat="48.04351" lon="7.00672">
        <ele>1269.27</ele>
        <time>2018-02-06T14:46:37Z</time>
      </trkpt>
      <trkpt lat="48.04355" lon="7.00673">
        <ele>1269.48</ele>
        <time>2018-02-06T14:46:44Z</time>
      </trkpt>
      <trkpt lat="48.04362" lon="7.00678">
        <ele>1269.13</ele>
        <time>2018-02-06T14:46:52Z</time>
      </trkpt>
      <trkpt lat="48.04369" lon="7.00684">
        <ele>1269.17</ele>
        <time>2018-02-06T14:46:59Z</time>
      </trkpt>
      <trkpt lat="48.04381" lon="7.00694">
        <ele>1268.05</ele>
        <time>2018-02-06T14:47:14Z</time>
      </trkpt>
      <trkpt lat="48.04385" lon="7.00696">
        <ele>1267.59</ele>
        <time>2018-02-06T14:47:17Z</time>
      </trkpt>
      <trkpt lat="48.04408" lon="7.00715">
        <ele>1265.05</ele>
        <time>2018-02-06T14:47:37Z</time>
      </trkpt>
      <trkpt lat="48.04425" lon="7.00728">
        <ele>1263.18</ele>
        <time>2018-02-06T14:47:54Z</time>
      </trkpt>
      <trkpt lat="48.04445" lon="7.00745">
        <ele>1262.57</ele>
        <time>2018-02-06T14:48:15Z</time>
      </trkpt>
      <trkpt lat="48.04461" lon="7.00758">
        <ele>1261.32</ele>
        <time>2018-02-06T14:48:33Z</time>
      </trkpt>
      <trkpt lat="48.04474" lon="7.00766">
        <ele>1259.32</ele>
        <time>2018-02-06T14:48:47Z</time>
      </trkpt>
      <trkpt lat="48.04488" lon="7.0078">
        <ele>1259.48</ele>
        <time>2018-02-06T14:49:05Z</time>
      </trkpt>
      <trkpt lat="48.04508" lon="7.00795">
        <ele>1258.63</ele>
        <time>2018-02-06T14:49:27Z</time>
      </trkpt>
      <trkpt lat="48.04526" lon="7.00808">
        <ele>1257.48</ele>
        <time>2018-02-06T14:49:45Z</time>
      </trkpt>
      <trkpt lat="48.04542" lon="7.0082">
        <ele>1256.36</ele>
        <time>2018-02-06T14:50:05Z</time>
      </trkpt>
      <trkpt lat="48.04557" lon="7.00834">
        <ele>1254.58</ele>
        <time>2018-02-06T14:50:23Z</time>
      </trkpt>
      <trkpt lat="48.04572" lon="7.00845">
        <ele>1252.98</ele>
        <time>2018-02-06T14:50:41Z</time>
      </trkpt>
      <trkpt lat="48.0459" lon="7.00854">
        <ele>1251.66</ele>
        <time>2018-02-06T14:51:01Z</time>
      </trkpt>
      <trkpt lat="48.04609" lon="7.00854">
        <ele>1250.89</ele>
        <time>2018-02-06T14:51:21Z</time>
      </trkpt>
      <trkpt lat="48.04628" lon="7.00853">
        <ele>1250.29</ele>
        <time>2018-02-06T14:51:43Z</time>
      </trkpt>
      <trkpt lat="48.04641" lon="7.0085">
        <ele>1248.2</ele>
        <time>2018-02-06T14:51:58Z</time>
      </trkpt>
      <trkpt lat="48.04654" lon="7.00848">
        <ele>1247.78</ele>
        <time>2018-02-06T14:52:16Z</time>
      </trkpt>
      <trkpt lat="48.04656" lon="7.00848">
        <ele>1248.15</ele>
        <time>2018-02-06T14:52:20Z</time>
      </trkpt>
      <trkpt lat="48.04676" lon="7.00847">
        <ele>1245.94</ele>
        <time>2018-02-06T14:52:40Z</time>
      </trkpt>
      <trkpt lat="48.04694" lon="7.00852">
        <ele>1245.23</ele>
        <time>2018-02-06T14:52:59Z</time>
      </trkpt>
      <trkpt lat="48.0471" lon="7.00857">
        <ele>1244.39</ele>
        <time>2018-02-06T14:53:15Z</time>
      </trkpt>
      <trkpt lat="48.04724" lon="7.00865">
        <ele>1243.24</ele>
        <time>2018-02-06T14:53:33Z</time>
      </trkpt>
      <trkpt lat="48.04742" lon="7.00873">
        <ele>1241.86</ele>
        <time>2018-02-06T14:53:54Z</time>
      </trkpt>
      <trkpt lat="48.04743" lon="7.00874">
        <ele>1241.99</ele>
        <time>2018-02-06T14:53:57Z</time>
      </trkpt>
      <trkpt lat="48.04749" lon="7.00874">
        <ele>1241.81</ele>
        <time>2018-02-06T14:54:03Z</time>
      </trkpt>
      <trkpt lat="48.04757" lon="7.00876">
        <ele>1240.29</ele>
        <time>2018-02-06T14:54:14Z</time>
      </trkpt>
      <trkpt lat="48.0476" lon="7.00878">
        <ele>1240.54</ele>
        <time>2018-02-06T14:54:17Z</time>
      </trkpt>
      <trkpt lat="48.04772" lon="7.00885">
        <ele>1239.87</ele>
        <time>2018-02-06T14:54:31Z</time>
      </trkpt>
      <trkpt lat="48.04776" lon="7.00887">
        <ele>1239.99</ele>
        <time>2018-02-06T14:54:40Z</time>
      </trkpt>
      <trkpt lat="48.04781" lon="7.00889">
        <ele>1239.19</ele>
        <time>2018-02-06T14:54:44Z</time>
      </trkpt>
      <trkpt lat="48.04799" lon="7.00898">
        <ele>1237.51</ele>
        <time>2018-02-06T14:55:02Z</time>
      </trkpt>
      <trkpt lat="48.04804" lon="7.009">
        <ele>1236.95</ele>
        <time>2018-02-06T14:55:06Z</time>
      </trkpt>
      <trkpt lat="48.04814" lon="7.00905">
        <ele>1236.75</ele>
        <time>2018-02-06T14:55:18Z</time>
      </trkpt>
      <trkpt lat="48.04829" lon="7.00914">
        <ele>1235.41</ele>
        <time>2018-02-06T14:55:34Z</time>
      </trkpt>
      <trkpt lat="48.04839" lon="7.00918">
        <ele>1235.37</ele>
        <time>2018-02-06T14:55:51Z</time>
      </trkpt>
      <trkpt lat="48.04849" lon="7.00926">
        <ele>1235.2</ele>
        <time>2018-02-06T14:56:09Z</time>
      </trkpt>
      <trkpt lat="48.04859" lon="7.00933">
        <ele>1234.9</ele>
        <time>2018-02-06T14:56:28Z</time>
      </trkpt>
      <trkpt lat="48.04861" lon="7.00933">
        <ele>1234.19</ele>
        <time>2018-02-06T14:56:43Z</time>
      </trkpt>
      <trkpt lat="48.04863" lon="7.00933">
        <ele>1234.39</ele>
        <time>2018-02-06T14:57:07Z</time>
      </trkpt>
      <trkpt lat="48.04863" lon="7.00935">
        <ele>1234.43</ele>
        <time>2018-02-06T14:57:31Z</time>
      </trkpt>
      <trkpt lat="48.04865" lon="7.00935">
        <ele>1233.58</ele>
        <time>2018-02-06T14:57:55Z</time>
      </trkpt>
      <trkpt lat="48.04869" lon="7.00935">
        <ele>1233.29</ele>
        <time>2018-02-06T14:58:07Z</time>
      </trkpt>
      <trkpt lat="48.04874" lon="7.00937">
        <ele>1233.85</ele>
        <time>2018-02-06T14:58:25Z</time>
      </trkpt>
      <trkpt lat="48.04874" lon="7.00936">
        <ele>1233.25</ele>
        <time>2018-02-06T14:58:38Z</time>
      </trkpt>
      <trkpt lat="48.04877" lon="7.00936">
        <ele>1233.56</ele>
        <time>2018-02-06T14:58:41Z</time>
      </trkpt>
      <trkpt lat="48.04886" lon="7.0094">
        <ele>1233.23</ele>
        <time>2018-02-06T14:58:54Z</time>
      </trkpt>
      <trkpt lat="48.04887" lon="7.00942">
        <ele>1233.64</ele>
        <time>2018-02-06T14:59:08Z</time>
      </trkpt>
      <trkpt lat="48.04887" lon="7.00942">
        <ele>1233.56</ele>
        <time>2018-02-06T14:59:28Z</time>
      </trkpt>
      <trkpt lat="48.04887" lon="7.00941">
        <ele>1233.4</ele>
        <time>2018-02-06T14:59:44Z</time>
      </trkpt>
      <trkpt lat="48.04887" lon="7.00937">
        <ele>1234.69</ele>
        <time>2018-02-06T15:00:05Z</time>
      </trkpt>
      <trkpt lat="48.04888" lon="7.00936">
        <ele>1234.92</ele>
        <time>2018-02-06T15:00:18Z</time>
      </trkpt>
      <trkpt lat="48.0489" lon="7.00936">
        <ele>1235</ele>
        <time>2018-02-06T15:00:35Z</time>
      </trkpt>
      <trkpt lat="48.04896" lon="7.00938">
        <ele>1233.94</ele>
        <time>2018-02-06T15:00:43Z</time>
      </trkpt>
      <trkpt lat="48.049" lon="7.00938">
        <ele>1232.62</ele>
        <time>2018-02-06T15:00:57Z</time>
      </trkpt>
      <trkpt lat="48.04899" lon="7.00939">
        <ele>1233.42</ele>
        <time>2018-02-06T15:01:16Z</time>
      </trkpt>
      <trkpt lat="48.04899" lon="7.00939">
        <ele>1232.82</ele>
        <time>2018-02-06T15:01:40Z</time>
      </trkpt>
      <trkpt lat="48.04906" lon="7.00939">
        <ele>1231.71</ele>
        <time>2018-02-06T15:02:06Z</time>
      </trkpt>
      <trkpt lat="48.04917" lon="7.00944">
        <ele>1230.09</ele>
        <time>2018-02-06T15:02:21Z</time>
      </trkpt>
      <trkpt lat="48.04921" lon="7.00945">
        <ele>1229.03</ele>
        <time>2018-02-06T15:02:25Z</time>
      </trkpt>
      <trkpt lat="48.04935" lon="7.0095">
        <ele>1228.19</ele>
        <time>2018-02-06T15:02:43Z</time>
      </trkpt>
      <trkpt lat="48.04936" lon="7.00949">
        <ele>1227.52</ele>
        <time>2018-02-06T15:02:57Z</time>
      </trkpt>
      <trkpt lat="48.04936" lon="7.00946">
        <ele>1227.15</ele>
        <time>2018-02-06T15:03:13Z</time>
      </trkpt>
      <trkpt lat="48.04937" lon="7.00948">
        <ele>1227.34</ele>
        <time>2018-02-06T15:03:32Z</time>
      </trkpt>
      <trkpt lat="48.04938" lon="7.00948">
        <ele>1228.16</ele>
        <time>2018-02-06T15:03:41Z</time>
      </trkpt>
      <trkpt lat="48.0494" lon="7.00949">
        <ele>1227.34</ele>
        <time>2018-02-06T15:03:46Z</time>
      </trkpt>
      <trkpt lat="48.04943" lon="7.0095">
        <ele>1226.95</ele>
        <time>2018-02-06T15:03:49Z</time>
      </trkpt>
      <trkpt lat="48.04952" lon="7.00953">
        <ele>1226.43</ele>
        <time>2018-02-06T15:04:03Z</time>
      </trkpt>
      <trkpt lat="48.04956" lon="7.00955">
        <ele>1227.24</ele>
        <time>2018-02-06T15:04:11Z</time>
      </trkpt>
      <trkpt lat="48.04966" lon="7.00957">
        <ele>1226.27</ele>
        <time>2018-02-06T15:04:27Z</time>
      </trkpt>
      <trkpt lat="48.04968" lon="7.00957">
        <ele>1226.36</ele>
        <time>2018-02-06T15:04:29Z</time>
      </trkpt>
      <trkpt lat="48.04971" lon="7.00959">
        <ele>1225.83</ele>
        <time>2018-02-06T15:04:32Z</time>
      </trkpt>
      <trkpt lat="48.04982" lon="7.00963">
        <ele>1224.98</ele>
        <time>2018-02-06T15:04:52Z</time>
      </trkpt>
      <trkpt lat="48.04996" lon="7.00967">
        <ele>1224.35</ele>
        <time>2018-02-06T15:05:13Z</time>
      </trkpt>
      <trkpt lat="48.05014" lon="7.00973">
        <ele>1223.33</ele>
        <time>2018-02-06T15:05:34Z</time>
      </trkpt>
      <trkpt lat="48.05032" lon="7.00978">
        <ele>1221.41</ele>
        <time>2018-02-06T15:05:56Z</time>
      </trkpt>
      <trkpt lat="48.0504" lon="7.00979">
        <ele>1221.5</ele>
        <time>2018-02-06T15:06:03Z</time>
      </trkpt>
      <trkpt lat="48.05055" lon="7.00981">
        <ele>1219.78</ele>
        <time>2018-02-06T15:06:20Z</time>
      </trkpt>
      <trkpt lat="48.0507" lon="7.00983">
        <ele>1218.85</ele>
        <time>2018-02-06T15:06:37Z</time>
      </trkpt>
      <trkpt lat="48.05091" lon="7.00986">
        <ele>1217.98</ele>
        <time>2018-02-06T15:06:58Z</time>
      </trkpt>
      <trkpt lat="48.05112" lon="7.00989">
        <ele>1216.84</ele>
        <time>2018-02-06T15:07:19Z</time>
      </trkpt>
      <trkpt lat="48.05139" lon="7.00992">
        <ele>1215.26</ele>
        <time>2018-02-06T15:07:43Z</time>
      </trkpt>
      <trkpt lat="48.05154" lon="7.00995">
        <ele>1214.35</ele>
        <time>2018-02-06T15:07:57Z</time>
      </trkpt>
      <trkpt lat="48.05175" lon="7.01003">
        <ele>1212.85</ele>
        <time>2018-02-06T15:08:16Z</time>
      </trkpt>
      <trkpt lat="48.05191" lon="7.01013">
        <ele>1212.59</ele>
        <time>2018-02-06T15:08:36Z</time>
      </trkpt>
      <trkpt lat="48.05206" lon="7.01023">
        <ele>1210.89</ele>
        <time>2018-02-06T15:08:56Z</time>
      </trkpt>
      <trkpt lat="48.05213" lon="7.01025">
        <ele>1211.18</ele>
        <time>2018-02-06T15:09:09Z</time>
      </trkpt>
      <trkpt lat="48.0523" lon="7.01037">
        <ele>1210.51</ele>
        <time>2018-02-06T15:09:33Z</time>
      </trkpt>
      <trkpt lat="48.05234" lon="7.01047">
        <ele>1209.63</ele>
        <time>2018-02-06T15:09:43Z</time>
      </trkpt>
      <trkpt lat="48.05248" lon="7.01063">
        <ele>1208.91</ele>
        <time>2018-02-06T15:10:01Z</time>
      </trkpt>
      <trkpt lat="48.05252" lon="7.01066">
        <ele>1208.81</ele>
        <time>2018-02-06T15:10:05Z</time>
      </trkpt>
      <trkpt lat="48.05265" lon="7.01076">
        <ele>1207.75</ele>
        <time>2018-02-06T15:10:17Z</time>
      </trkpt>
      <trkpt lat="48.05268" lon="7.0108">
        <ele>1207.33</ele>
        <time>2018-02-06T15:10:21Z</time>
      </trkpt>
      <trkpt lat="48.05278" lon="7.01085">
        <ele>1206.06</ele>
        <time>2018-02-06T15:10:30Z</time>
      </trkpt>
      <trkpt lat="48.05292" lon="7.01097">
        <ele>1205.34</ele>
        <time>2018-02-06T15:10:47Z</time>
      </trkpt>
      <trkpt lat="48.05303" lon="7.01101">
        <ele>1205.74</ele>
        <time>2018-02-06T15:11:12Z</time>
      </trkpt>
      <trkpt lat="48.05306" lon="7.01099">
        <ele>1206.09</ele>
        <time>2018-02-06T15:11:29Z</time>
      </trkpt>
      <trkpt lat="48.05312" lon="7.01095">
        <ele>1205.71</ele>
        <time>2018-02-06T15:11:52Z</time>
      </trkpt>
      <trkpt lat="48.05318" lon="7.01103">
        <ele>1204.93</ele>
        <time>2018-02-06T15:12:07Z</time>
      </trkpt>
      <trkpt lat="48.05325" lon="7.0111">
        <ele>1203.74</ele>
        <time>2018-02-06T15:12:26Z</time>
      </trkpt>
      <trkpt lat="48.05338" lon="7.01119">
        <ele>1202.87</ele>
        <time>2018-02-06T15:12:43Z</time>
      </trkpt>
      <trkpt lat="48.05357" lon="7.01122">
        <ele>1202.4</ele>
        <time>2018-02-06T15:12:59Z</time>
      </trkpt>
      <trkpt lat="48.05373" lon="7.0112">
        <ele>1201.52</ele>
        <time>2018-02-06T15:13:16Z</time>
      </trkpt>
      <trkpt lat="48.05379" lon="7.01118">
        <ele>1201.43</ele>
        <time>2018-02-06T15:13:35Z</time>
      </trkpt>
      <trkpt lat="48.05386" lon="7.0112">
        <ele>1202.34</ele>
        <time>2018-02-06T15:13:55Z</time>
      </trkpt>
      <trkpt lat="48.05394" lon="7.01113">
        <ele>1200.04</ele>
        <time>2018-02-06T15:14:12Z</time>
      </trkpt>
      <trkpt lat="48.05407" lon="7.01096">
        <ele>1198.73</ele>
        <time>2018-02-06T15:14:32Z</time>
      </trkpt>
      <trkpt lat="48.05425" lon="7.01078">
        <ele>1198</ele>
        <time>2018-02-06T15:14:52Z</time>
      </trkpt>
      <trkpt lat="48.05431" lon="7.01065">
        <ele>1197.85</ele>
        <time>2018-02-06T15:15:08Z</time>
      </trkpt>
      <trkpt lat="48.05454" lon="7.01057">
        <ele>1197.14</ele>
        <time>2018-02-06T15:15:27Z</time>
      </trkpt>
      <trkpt lat="48.05465" lon="7.01054">
        <ele>1196.38</ele>
        <time>2018-02-06T15:15:43Z</time>
      </trkpt>
      <trkpt lat="48.05471" lon="7.01048">
        <ele>1196.9</ele>
        <time>2018-02-06T15:16:03Z</time>
      </trkpt>
      <trkpt lat="48.05479" lon="7.01047">
        <ele>1197.04</ele>
        <time>2018-02-06T15:16:20Z</time>
      </trkpt>
      <trkpt lat="48.05485" lon="7.0105">
        <ele>1196.66</ele>
        <time>2018-02-06T15:16:31Z</time>
      </trkpt>
      <trkpt lat="48.05496" lon="7.01062">
        <ele>1197.07</ele>
        <time>2018-02-06T15:16:48Z</time>
      </trkpt>
      <trkpt lat="48.05498" lon="7.01067">
        <ele>1198.4</ele>
        <time>2018-02-06T15:17:05Z</time>
      </trkpt>
      <trkpt lat="48.05502" lon="7.01077">
        <ele>1198.4</ele>
        <time>2018-02-06T15:17:32Z</time>
      </trkpt>
      <trkpt lat="48.055" lon="7.01098">
        <ele>1199.19</ele>
        <time>2018-02-06T15:17:51Z</time>
      </trkpt>
      <trkpt lat="48.05498" lon="7.01114">
        <ele>1201.19</ele>
        <time>2018-02-06T15:18:07Z</time>
      </trkpt>
      <trkpt lat="48.05501" lon="7.01133">
        <ele>1202.7</ele>
        <time>2018-02-06T15:18:22Z</time>
      </trkpt>
      <trkpt lat="48.05502" lon="7.01141">
        <ele>1202.56</ele>
        <time>2018-02-06T15:18:43Z</time>
      </trkpt>
      <trkpt lat="48.05503" lon="7.01147">
        <ele>1202.57</ele>
        <time>2018-02-06T15:19:02Z</time>
      </trkpt>
      <trkpt lat="48.05501" lon="7.01149">
        <ele>1203.64</ele>
        <time>2018-02-06T15:19:22Z</time>
      </trkpt>
      <trkpt lat="48.05504" lon="7.01168">
        <ele>1205.26</ele>
        <time>2018-02-06T15:19:44Z</time>
      </trkpt>
      <trkpt lat="48.05503" lon="7.01181">
        <ele>1206.83</ele>
        <time>2018-02-06T15:20:08Z</time>
      </trkpt>
      <trkpt lat="48.05504" lon="7.01192">
        <ele>1206.74</ele>
        <time>2018-02-06T15:20:34Z</time>
      </trkpt>
      <trkpt lat="48.05511" lon="7.01206">
        <ele>1208.7</ele>
        <time>2018-02-06T15:20:51Z</time>
      </trkpt>
      <trkpt lat="48.05513" lon="7.01218">
        <ele>1210.72</ele>
        <time>2018-02-06T15:21:09Z</time>
      </trkpt>
      <trkpt lat="48.05516" lon="7.01234">
        <ele>1212.13</ele>
        <time>2018-02-06T15:21:30Z</time>
      </trkpt>
      <trkpt lat="48.05516" lon="7.01248">
        <ele>1213.98</ele>
        <time>2018-02-06T15:21:46Z</time>
      </trkpt>
      <trkpt lat="48.05514" lon="7.01256">
        <ele>1214.27</ele>
        <time>2018-02-06T15:22:10Z</time>
      </trkpt>
      <trkpt lat="48.05515" lon="7.01271">
        <ele>1216.22</ele>
        <time>2018-02-06T15:22:32Z</time>
      </trkpt>
      <trkpt lat="48.05515" lon="7.01276">
        <ele>1216.4</ele>
        <time>2018-02-06T15:22:53Z</time>
      </trkpt>
      <trkpt lat="48.05517" lon="7.0129">
        <ele>1218.67</ele>
        <time>2018-02-06T15:23:16Z</time>
      </trkpt>
      <trkpt lat="48.0552" lon="7.01305">
        <ele>1218.87</ele>
        <time>2018-02-06T15:23:31Z</time>
      </trkpt>
      <trkpt lat="48.05525" lon="7.0131">
        <ele>1217.66</ele>
        <time>2018-02-06T15:23:51Z</time>
      </trkpt>
      <trkpt lat="48.05534" lon="7.01315">
        <ele>1216.88</ele>
        <time>2018-02-06T15:24:10Z</time>
      </trkpt>
      <trkpt lat="48.05546" lon="7.0132">
        <ele>1215.94</ele>
        <time>2018-02-06T15:24:29Z</time>
      </trkpt>
      <trkpt lat="48.05557" lon="7.01323">
        <ele>1214.89</ele>
        <time>2018-02-06T15:24:48Z</time>
      </trkpt>
      <trkpt lat="48.05568" lon="7.01331">
        <ele>1214.7</ele>
        <time>2018-02-06T15:25:06Z</time>
      </trkpt>
      <trkpt lat="48.05577" lon="7.0134">
        <ele>1214.23</ele>
        <time>2018-02-06T15:25:24Z</time>
      </trkpt>
      <trkpt lat="48.05588" lon="7.01353">
        <ele>1213.45</ele>
        <time>2018-02-06T15:25:43Z</time>
      </trkpt>
      <trkpt lat="48.05601" lon="7.01359">
        <ele>1211.23</ele>
        <time>2018-02-06T15:26:02Z</time>
      </trkpt>
      <trkpt lat="48.05611" lon="7.01364">
        <ele>1211.46</ele>
        <time>2018-02-06T15:26:19Z</time>
      </trkpt>
      <trkpt lat="48.05618" lon="7.0137">
        <ele>1209.71</ele>
        <time>2018-02-06T15:26:35Z</time>
      </trkpt>
      <trkpt lat="48.05622" lon="7.01372">
        <ele>1208.98</ele>
        <time>2018-02-06T15:26:54Z</time>
      </trkpt>
      <trkpt lat="48.05626" lon="7.01375">
        <ele>1209.07</ele>
        <time>2018-02-06T15:27:19Z</time>
      </trkpt>
      <trkpt lat="48.05632" lon="7.01381">
        <ele>1210.02</ele>
        <time>2018-02-06T15:27:39Z</time>
      </trkpt>
      <trkpt lat="48.05638" lon="7.01385">
        <ele>1210.24</ele>
        <time>2018-02-06T15:27:57Z</time>
      </trkpt>
      <trkpt lat="48.05645" lon="7.01392">
        <ele>1209.41</ele>
        <time>2018-02-06T15:28:13Z</time>
      </trkpt>
      <trkpt lat="48.05652" lon="7.014">
        <ele>1208.18</ele>
        <time>2018-02-06T15:28:34Z</time>
      </trkpt>
      <trkpt lat="48.05657" lon="7.01406">
        <ele>1207.32</ele>
        <time>2018-02-06T15:28:52Z</time>
      </trkpt>
      <trkpt lat="48.05666" lon="7.01414">
        <ele>1206.75</ele>
        <time>2018-02-06T15:29:10Z</time>
      </trkpt>
      <trkpt lat="48.05677" lon="7.01418">
        <ele>1205.83</ele>
        <time>2018-02-06T15:29:30Z</time>
      </trkpt>
      <trkpt lat="48.05686" lon="7.01416">
        <ele>1205.33</ele>
        <time>2018-02-06T15:29:56Z</time>
      </trkpt>
      <trkpt lat="48.05698" lon="7.01409">
        <ele>1202.25</ele>
        <time>2018-02-06T15:30:19Z</time>
      </trkpt>
      <trkpt lat="48.05706" lon="7.01409">
        <ele>1200.43</ele>
        <time>2018-02-06T15:30:44Z</time>
      </trkpt>
      <trkpt lat="48.05711" lon="7.01403">
        <ele>1201.17</ele>
        <time>2018-02-06T15:31:06Z</time>
      </trkpt>
      <trkpt lat="48.0572" lon="7.01406">
        <ele>1199.49</ele>
        <time>2018-02-06T15:31:24Z</time>
      </trkpt>
      <trkpt lat="48.0572" lon="7.01405">
        <ele>1200.86</ele>
        <time>2018-02-06T15:31:46Z</time>
      </trkpt>
      <trkpt lat="48.05727" lon="7.014">
        <ele>1199.96</ele>
        <time>2018-02-06T15:32:18Z</time>
      </trkpt>
      <trkpt lat="48.0573" lon="7.01401">
        <ele>1200.19</ele>
        <time>2018-02-06T15:32:51Z</time>
      </trkpt>
      <trkpt lat="48.05733" lon="7.01402">
        <ele>1200.19</ele>
        <time>2018-02-06T15:33:21Z</time>
      </trkpt>
      <trkpt lat="48.0573" lon="7.01403">
        <ele>1200.52</ele>
        <time>2018-02-06T15:33:44Z</time>
      </trkpt>
      <trkpt lat="48.05726" lon="7.01406">
        <ele>1200.72</ele>
        <time>2018-02-06T15:34:10Z</time>
      </trkpt>
      <trkpt lat="48.05728" lon="7.01406">
        <ele>1200.37</ele>
        <time>2018-02-06T15:34:33Z</time>
      </trkpt>
      <trkpt lat="48.05728" lon="7.01408">
        <ele>1201.42</ele>
        <time>2018-02-06T15:34:58Z</time>
      </trkpt>
      <trkpt lat="48.0573" lon="7.01405">
        <ele>1200.45</ele>
        <time>2018-02-06T15:35:21Z</time>
      </trkpt>
      <trkpt lat="48.05731" lon="7.01407">
        <ele>1200.03</ele>
        <time>2018-02-06T15:35:45Z</time>
      </trkpt>
      <trkpt lat="48.05734" lon="7.01405">
        <ele>1198.32</ele>
        <time>2018-02-06T15:36:04Z</time>
      </trkpt>
      <trkpt lat="48.05739" lon="7.01403">
        <ele>1196.21</ele>
        <time>2018-02-06T15:36:23Z</time>
      </trkpt>
      <trkpt lat="48.05743" lon="7.01399">
        <ele>1194.96</ele>
        <time>2018-02-06T15:36:37Z</time>
      </trkpt>
      <trkpt lat="48.05748" lon="7.01394">
        <ele>1193.64</ele>
        <time>2018-02-06T15:36:54Z</time>
      </trkpt>
      <trkpt lat="48.05751" lon="7.01395">
        <ele>1193.06</ele>
        <time>2018-02-06T15:37:14Z</time>
      </trkpt>
      <trkpt lat="48.05758" lon="7.0139">
        <ele>1192.73</ele>
        <time>2018-02-06T15:37:34Z</time>
      </trkpt>
      <trkpt lat="48.05765" lon="7.01386">
        <ele>1191.73</ele>
        <time>2018-02-06T15:37:58Z</time>
      </trkpt>
      <trkpt lat="48.05769" lon="7.01381">
        <ele>1191.06</ele>
        <time>2018-02-06T15:38:15Z</time>
      </trkpt>
      <trkpt lat="48.05776" lon="7.01381">
        <ele>1192.37</ele>
        <time>2018-02-06T15:38:35Z</time>
      </trkpt>
      <trkpt lat="48.05787" lon="7.01386">
        <ele>1193.15</ele>
        <time>2018-02-06T15:38:57Z</time>
      </trkpt>
      <trkpt lat="48.05797" lon="7.01391">
        <ele>1193</ele>
        <time>2018-02-06T15:39:21Z</time>
      </trkpt>
      <trkpt lat="48.05804" lon="7.01393">
        <ele>1192.46</ele>
        <time>2018-02-06T15:39:46Z</time>
      </trkpt>
      <trkpt lat="48.05817" lon="7.01397">
        <ele>1193.63</ele>
        <time>2018-02-06T15:40:09Z</time>
      </trkpt>
      <trkpt lat="48.05829" lon="7.01403">
        <ele>1194.29</ele>
        <time>2018-02-06T15:40:26Z</time>
      </trkpt>
      <trkpt lat="48.05843" lon="7.01406">
        <ele>1193.6</ele>
        <time>2018-02-06T15:40:46Z</time>
      </trkpt>
      <trkpt lat="48.05847" lon="7.01408">
        <ele>1193.59</ele>
        <time>2018-02-06T15:41:06Z</time>
      </trkpt>
      <trkpt lat="48.05853" lon="7.01409">
        <ele>1192.53</ele>
        <time>2018-02-06T15:41:25Z</time>
      </trkpt>
      <trkpt lat="48.05855" lon="7.01408">
        <ele>1191.74</ele>
        <time>2018-02-06T15:41:36Z</time>
      </trkpt>
      <trkpt lat="48.05863" lon="7.01409">
        <ele>1191.64</ele>
        <time>2018-02-06T15:41:57Z</time>
      </trkpt>
      <trkpt lat="48.05868" lon="7.01412">
        <ele>1191.21</ele>
        <time>2018-02-06T15:42:19Z</time>
      </trkpt>
      <trkpt lat="48.05877" lon="7.0141">
        <ele>1189.31</ele>
        <time>2018-02-06T15:42:38Z</time>
      </trkpt>
      <trkpt lat="48.05886" lon="7.01408">
        <ele>1188.52</ele>
        <time>2018-02-06T15:42:58Z</time>
      </trkpt>
      <trkpt lat="48.05889" lon="7.01404">
        <ele>1188.31</ele>
        <time>2018-02-06T15:43:21Z</time>
      </trkpt>
      <trkpt lat="48.05895" lon="7.01404">
        <ele>1187.69</ele>
        <time>2018-02-06T15:43:48Z</time>
      </trkpt>
      <trkpt lat="48.05902" lon="7.01402">
        <ele>1185.52</ele>
        <time>2018-02-06T15:44:07Z</time>
      </trkpt>
      <trkpt lat="48.05912" lon="7.01399">
        <ele>1183.08</ele>
        <time>2018-02-06T15:44:27Z</time>
      </trkpt>
      <trkpt lat="48.05921" lon="7.01402">
        <ele>1181.97</ele>
        <time>2018-02-06T15:44:45Z</time>
      </trkpt>
      <trkpt lat="48.05928" lon="7.01404">
        <ele>1180.51</ele>
        <time>2018-02-06T15:45:03Z</time>
      </trkpt>
      <trkpt lat="48.05939" lon="7.01403">
        <ele>1179.6</ele>
        <time>2018-02-06T15:45:21Z</time>
      </trkpt>
      <trkpt lat="48.05942" lon="7.01402">
        <ele>1178.25</ele>
        <time>2018-02-06T15:45:24Z</time>
      </trkpt>
      <trkpt lat="48.05948" lon="7.01402">
        <ele>1177.75</ele>
        <time>2018-02-06T15:45:41Z</time>
      </trkpt>
      <trkpt lat="48.0596" lon="7.01404">
        <ele>1175.28</ele>
        <time>2018-02-06T15:46:06Z</time>
      </trkpt>
      <trkpt lat="48.05969" lon="7.01401">
        <ele>1173.13</ele>
        <time>2018-02-06T15:46:28Z</time>
      </trkpt>
      <trkpt lat="48.05977" lon="7.01402">
        <ele>1172.57</ele>
        <time>2018-02-06T15:46:49Z</time>
      </trkpt>
      <trkpt lat="48.05992" lon="7.01406">
        <ele>1170.03</ele>
        <time>2018-02-06T15:47:12Z</time>
      </trkpt>
      <trkpt lat="48.05999" lon="7.01407">
        <ele>1168.29</ele>
        <time>2018-02-06T15:47:33Z</time>
      </trkpt>
      <trkpt lat="48.0601" lon="7.01402">
        <ele>1165.79</ele>
        <time>2018-02-06T15:47:52Z</time>
      </trkpt>
      <trkpt lat="48.06011" lon="7.01401">
        <ele>1165.32</ele>
        <time>2018-02-06T15:48:09Z</time>
      </trkpt>
      <trkpt lat="48.06017" lon="7.01408">
        <ele>1165.4</ele>
        <time>2018-02-06T15:48:26Z</time>
      </trkpt>
      <trkpt lat="48.06013" lon="7.01404">
        <ele>1165.65</ele>
        <time>2018-02-06T15:48:45Z</time>
      </trkpt>
      <trkpt lat="48.06008" lon="7.01399">
        <ele>1165.24</ele>
        <time>2018-02-06T15:49:07Z</time>
      </trkpt>
      <trkpt lat="48.06006" lon="7.01395">
        <ele>1165.43</ele>
        <time>2018-02-06T15:49:33Z</time>
      </trkpt>
      <trkpt lat="48.06013" lon="7.01404">
        <ele>1164.99</ele>
        <time>2018-02-06T15:49:50Z</time>
      </trkpt>
      <trkpt lat="48.06022" lon="7.01412">
        <ele>1165.69</ele>
        <time>2018-02-06T15:50:14Z</time>
      </trkpt>
      <trkpt lat="48.06038" lon="7.01423">
        <ele>1164.29</ele>
        <time>2018-02-06T15:50:33Z</time>
      </trkpt>
      <trkpt lat="48.0605" lon="7.0143">
        <ele>1163.77</ele>
        <time>2018-02-06T15:50:50Z</time>
      </trkpt>
      <trkpt lat="48.06063" lon="7.01443">
        <ele>1162.52</ele>
        <time>2018-02-06T15:51:11Z</time>
      </trkpt>
      <trkpt lat="48.06081" lon="7.01458">
        <ele>1161.63</ele>
        <time>2018-02-06T15:51:30Z</time>
      </trkpt>
      <trkpt lat="48.06097" lon="7.01481">
        <ele>1160.74</ele>
        <time>2018-02-06T15:51:52Z</time>
      </trkpt>
      <trkpt lat="48.06112" lon="7.015">
        <ele>1159.74</ele>
        <time>2018-02-06T15:52:10Z</time>
      </trkpt>
      <trkpt lat="48.06116" lon="7.01506">
        <ele>1160.03</ele>
        <time>2018-02-06T15:52:14Z</time>
      </trkpt>
      <trkpt lat="48.06118" lon="7.0151">
        <ele>1159.88</ele>
        <time>2018-02-06T15:52:16Z</time>
      </trkpt>
      <trkpt lat="48.06132" lon="7.01523">
        <ele>1158.71</ele>
        <time>2018-02-06T15:52:30Z</time>
      </trkpt>
      <trkpt lat="48.06145" lon="7.01548">
        <ele>1157.88</ele>
        <time>2018-02-06T15:52:48Z</time>
      </trkpt>
      <trkpt lat="48.0615" lon="7.01553">
        <ele>1157.74</ele>
        <time>2018-02-06T15:52:53Z</time>
      </trkpt>
      <trkpt lat="48.06161" lon="7.01568">
        <ele>1157.1</ele>
        <time>2018-02-06T15:53:07Z</time>
      </trkpt>
      <trkpt lat="48.06172" lon="7.01587">
        <ele>1156.98</ele>
        <time>2018-02-06T15:53:24Z</time>
      </trkpt>
      <trkpt lat="48.06183" lon="7.01607">
        <ele>1156.2</ele>
        <time>2018-02-06T15:53:40Z</time>
      </trkpt>
      <trkpt lat="48.06194" lon="7.01625">
        <ele>1155.13</ele>
        <time>2018-02-06T15:53:55Z</time>
      </trkpt>
      <trkpt lat="48.06201" lon="7.01638">
        <ele>1154.97</ele>
        <time>2018-02-06T15:54:08Z</time>
      </trkpt>
      <trkpt lat="48.06211" lon="7.01665">
        <ele>1154.06</ele>
        <time>2018-02-06T15:54:28Z</time>
      </trkpt>
      <trkpt lat="48.06212" lon="7.01673">
        <ele>1154.28</ele>
        <time>2018-02-06T15:54:32Z</time>
      </trkpt>
      <trkpt lat="48.06212" lon="7.01677">
        <ele>1153.88</ele>
        <time>2018-02-06T15:54:34Z</time>
      </trkpt>
      <trkpt lat="48.06212" lon="7.01687">
        <ele>1154.13</ele>
        <time>2018-02-06T15:54:39Z</time>
      </trkpt>
      <trkpt lat="48.06232" lon="7.01696">
        <ele>1152.66</ele>
        <time>2018-02-06T15:54:54Z</time>
      </trkpt>
      <trkpt lat="48.06231" lon="7.01701">
        <ele>1152.6</ele>
        <time>2018-02-06T15:55:10Z</time>
      </trkpt>
      <trkpt lat="48.06229" lon="7.017">
        <ele>1152.64</ele>
        <time>2018-02-06T15:55:37Z</time>
      </trkpt>
      <trkpt lat="48.06228" lon="7.01696">
        <ele>1151.68</ele>
        <time>2018-02-06T15:56:07Z</time>
      </trkpt>
      <trkpt lat="48.06229" lon="7.01699">
        <ele>1152.25</ele>
        <time>2018-02-06T15:56:31Z</time>
      </trkpt>
      <trkpt lat="48.06229" lon="7.017">
        <ele>1151.74</ele>
        <time>2018-02-06T15:56:54Z</time>
      </trkpt>
      <trkpt lat="48.06227" lon="7.01698">
        <ele>1151.94</ele>
        <time>2018-02-06T15:57:24Z</time>
      </trkpt>
      <trkpt lat="48.06227" lon="7.01697">
        <ele>1151.71</ele>
        <time>2018-02-06T15:57:51Z</time>
      </trkpt>
      <trkpt lat="48.06212" lon="7.017">
        <ele>1152.34</ele>
        <time>2018-02-06T15:58:05Z</time>
      </trkpt>
      <trkpt lat="48.06211" lon="7.017">
        <ele>1152.69</ele>
        <time>2018-02-06T15:58:06Z</time>
      </trkpt>
      <trkpt lat="48.06215" lon="7.01711">
        <ele>1153.66</ele>
        <time>2018-02-06T15:58:18Z</time>
      </trkpt>
      <trkpt lat="48.0622" lon="7.01735">
        <ele>1152.48</ele>
        <time>2018-02-06T15:58:32Z</time>
      </trkpt>
      <trkpt lat="48.06224" lon="7.01755">
        <ele>1151.47</ele>
        <time>2018-02-06T15:58:45Z</time>
      </trkpt>
      <trkpt lat="48.06228" lon="7.0177">
        <ele>1151.43</ele>
        <time>2018-02-06T15:58:57Z</time>
      </trkpt>
      <trkpt lat="48.06233" lon="7.01795">
        <ele>1151.14</ele>
        <time>2018-02-06T15:59:15Z</time>
      </trkpt>
      <trkpt lat="48.06234" lon="7.018">
        <ele>1151.39</ele>
        <time>2018-02-06T15:59:18Z</time>
      </trkpt>
      <trkpt lat="48.06235" lon="7.01825">
        <ele>1151.13</ele>
        <time>2018-02-06T15:59:33Z</time>
      </trkpt>
      <trkpt lat="48.06236" lon="7.01845">
        <ele>1150.3</ele>
        <time>2018-02-06T15:59:48Z</time>
      </trkpt>
      <trkpt lat="48.06236" lon="7.01849">
        <ele>1149.97</ele>
        <time>2018-02-06T15:59:51Z</time>
      </trkpt>
      <trkpt lat="48.06236" lon="7.01872">
        <ele>1149.64</ele>
        <time>2018-02-06T16:00:07Z</time>
      </trkpt>
      <trkpt lat="48.06237" lon="7.01892">
        <ele>1149.4</ele>
        <time>2018-02-06T16:00:25Z</time>
      </trkpt>
      <trkpt lat="48.06238" lon="7.01914">
        <ele>1149.62</ele>
        <time>2018-02-06T16:00:43Z</time>
      </trkpt>
      <trkpt lat="48.06239" lon="7.01933">
        <ele>1148.85</ele>
        <time>2018-02-06T16:00:58Z</time>
      </trkpt>
      <trkpt lat="48.06243" lon="7.01956">
        <ele>1148.24</ele>
        <time>2018-02-06T16:01:15Z</time>
      </trkpt>
      <trkpt lat="48.06246" lon="7.01975">
        <ele>1147.5</ele>
        <time>2018-02-06T16:01:30Z</time>
      </trkpt>
      <trkpt lat="48.06242" lon="7.01994">
        <ele>1147.78</ele>
        <time>2018-02-06T16:01:47Z</time>
      </trkpt>
      <trkpt lat="48.06236" lon="7.02016">
        <ele>1147.27</ele>
        <time>2018-02-06T16:02:00Z</time>
      </trkpt>
      <trkpt lat="48.06231" lon="7.0203">
        <ele>1146.32</ele>
        <time>2018-02-06T16:02:12Z</time>
      </trkpt>
      <trkpt lat="48.06227" lon="7.02041">
        <ele>1146.5</ele>
        <time>2018-02-06T16:02:19Z</time>
      </trkpt>
      <trkpt lat="48.06227" lon="7.02061">
        <ele>1146.2</ele>
        <time>2018-02-06T16:02:33Z</time>
      </trkpt>
      <trkpt lat="48.06229" lon="7.02076">
        <ele>1146.44</ele>
        <time>2018-02-06T16:02:43Z</time>
      </trkpt>
      <trkpt lat="48.06232" lon="7.02093">
        <ele>1146.49</ele>
        <time>2018-02-06T16:02:52Z</time>
      </trkpt>
      <trkpt lat="48.06237" lon="7.021">
        <ele>1145.14</ele>
        <time>2018-02-06T16:02:58Z</time>
      </trkpt>
      <trkpt lat="48.06253" lon="7.0211">
        <ele>1144.6</ele>
        <time>2018-02-06T16:03:12Z</time>
      </trkpt>
      <trkpt lat="48.06272" lon="7.0212">
        <ele>1145.22</ele>
        <time>2018-02-06T16:03:28Z</time>
      </trkpt>
      <trkpt lat="48.06279" lon="7.02128">
        <ele>1146.41</ele>
        <time>2018-02-06T16:03:34Z</time>
      </trkpt>
      <trkpt lat="48.0629" lon="7.02153">
        <ele>1147.24</ele>
        <time>2018-02-06T16:03:50Z</time>
      </trkpt>
      <trkpt lat="48.06299" lon="7.0216">
        <ele>1146.19</ele>
        <time>2018-02-06T16:04:01Z</time>
      </trkpt>
      <trkpt lat="48.06302" lon="7.02161">
        <ele>1145.55</ele>
        <time>2018-02-06T16:04:04Z</time>
      </trkpt>
      <trkpt lat="48.06317" lon="7.02172">
        <ele>1143.82</ele>
        <time>2018-02-06T16:04:21Z</time>
      </trkpt>
      <trkpt lat="48.06328" lon="7.0218">
        <ele>1143.74</ele>
        <time>2018-02-06T16:04:35Z</time>
      </trkpt>
      <trkpt lat="48.0633" lon="7.02178">
        <ele>1143.6</ele>
        <time>2018-02-06T16:04:50Z</time>
      </trkpt>
      <trkpt lat="48.0633" lon="7.02178">
        <ele>1143.63</ele>
        <time>2018-02-06T16:05:14Z</time>
      </trkpt>
      <trkpt lat="48.06333" lon="7.02181">
        <ele>1143.45</ele>
        <time>2018-02-06T16:05:33Z</time>
      </trkpt>
      <trkpt lat="48.06333" lon="7.02185">
        <ele>1143.06</ele>
        <time>2018-02-06T16:05:53Z</time>
      </trkpt>
      <trkpt lat="48.06333" lon="7.02182">
        <ele>1143.61</ele>
        <time>2018-02-06T16:06:16Z</time>
      </trkpt>
      <trkpt lat="48.06332" lon="7.02182">
        <ele>1143.58</ele>
        <time>2018-02-06T16:06:39Z</time>
      </trkpt>
      <trkpt lat="48.06335" lon="7.02185">
        <ele>1143.75</ele>
        <time>2018-02-06T16:06:59Z</time>
      </trkpt>
      <trkpt lat="48.06336" lon="7.02182">
        <ele>1143.64</ele>
        <time>2018-02-06T16:07:20Z</time>
      </trkpt>
      <trkpt lat="48.06339" lon="7.02189">
        <ele>1143.53</ele>
        <time>2018-02-06T16:07:25Z</time>
      </trkpt>
      <trkpt lat="48.06344" lon="7.02199">
        <ele>1143.75</ele>
        <time>2018-02-06T16:07:45Z</time>
      </trkpt>
      <trkpt lat="48.06342" lon="7.02201">
        <ele>1143.48</ele>
        <time>2018-02-06T16:08:13Z</time>
      </trkpt>
      <trkpt lat="48.06342" lon="7.02202">
        <ele>1143.58</ele>
        <time>2018-02-06T16:08:48Z</time>
      </trkpt>
      <trkpt lat="48.06342" lon="7.022">
        <ele>1143.63</ele>
        <time>2018-02-06T16:08:56Z</time>
      </trkpt>
      <trkpt lat="48.06339" lon="7.02194">
        <ele>1143.55</ele>
        <time>2018-02-06T16:09:10Z</time>
      </trkpt>
      <trkpt lat="48.06343" lon="7.02198">
        <ele>1143.5</ele>
        <time>2018-02-06T16:09:22Z</time>
      </trkpt>
      <trkpt lat="48.06338" lon="7.02194">
        <ele>1143.74</ele>
        <time>2018-02-06T16:09:31Z</time>
      </trkpt>
      <trkpt lat="48.06334" lon="7.02187">
        <ele>1143.49</ele>
        <time>2018-02-06T16:09:46Z</time>
      </trkpt>
      <trkpt lat="48.06354" lon="7.02212">
        <ele>1143.38</ele>
        <time>2018-02-06T16:10:05Z</time>
      </trkpt>
      <trkpt lat="48.06362" lon="7.02218">
        <ele>1143.85</ele>
        <time>2018-02-06T16:10:11Z</time>
      </trkpt>
      <trkpt lat="48.06379" lon="7.02217">
        <ele>1143.87</ele>
        <time>2018-02-06T16:10:26Z</time>
      </trkpt>
      <trkpt lat="48.0639" lon="7.02219">
        <ele>1144.02</ele>
        <time>2018-02-06T16:10:39Z</time>
      </trkpt>
      <trkpt lat="48.06407" lon="7.02219">
        <ele>1143.85</ele>
        <time>2018-02-06T16:10:57Z</time>
      </trkpt>
      <trkpt lat="48.06414" lon="7.02218">
        <ele>1143.26</ele>
        <time>2018-02-06T16:11:24Z</time>
      </trkpt>
      <trkpt lat="48.0642" lon="7.02219">
        <ele>1142.78</ele>
        <time>2018-02-06T16:11:37Z</time>
      </trkpt>
      <trkpt lat="48.0642" lon="7.02216">
        <ele>1142.53</ele>
        <time>2018-02-06T16:12:01Z</time>
      </trkpt>
      <trkpt lat="48.06418" lon="7.02218">
        <ele>1143.95</ele>
        <time>2018-02-06T16:12:23Z</time>
      </trkpt>
      <trkpt lat="48.06418" lon="7.02218">
        <ele>1142.99</ele>
        <time>2018-02-06T16:12:43Z</time>
      </trkpt>
    </trkseg>
  </trk>
</gpx>